G41530 / N275NV 7700 Squawk Report (21st of October, 2020)

Aircraft A320 Reg No. N275NV Age 14 years old
Model A320 Jet engines 2 First flight 06-06-06
Registered 12-04-19 Rollout 06-06 Delivered 30-06-06
Construction No. 2807 Line No. N/A Series 214
ADSHEX A2BA4F Airline name Allegiant Air Owner N/A
Airfield based Las Vegas-McCarran~NV~N First tracked N/A

Flight history for N275NV

Route Flight No Date Playback
Fort Lauderdale Hollywood Intl (FLL) - Cincinnati Northern Kentucky Intl (CVG) G41321 2020-11-30 02:56:00
Cincinnati Northern Kentucky Intl (CVG) - Fort Lauderdale Hollywood Intl (FLL) G41309 2020-11-29 23:45:00
Phoenix-Mesa Gateway (AZA) - Cincinnati Northern Kentucky Intl (CVG) G41320 2020-11-29 20:00:00
Cincinnati Northern Kentucky Intl (CVG) - Phoenix-Mesa Gateway (AZA) G41316 2020-11-29 16:53:00
Fort Lauderdale Hollywood Intl (FLL) - Cincinnati Northern Kentucky Intl (CVG) G41307 2020-11-29 01:22:00
Cincinnati Northern Kentucky Intl (CVG) - Fort Lauderdale Hollywood Intl (FLL) G41314 2020-11-28 21:51:00
Austin Bergstrom Intl (AUS) - Cincinnati Northern Kentucky Intl (CVG) G41301 2020-11-28 19:34:00
Cincinnati Northern Kentucky Intl (CVG) - Austin Bergstrom Intl (AUS) G41300 2020-11-28 15:54:00
Eglin Afb (VPS) - Cincinnati Northern Kentucky Intl (CVG) G41363 2020-11-27 21:59:00
Cincinnati Northern Kentucky Intl (CVG) - Eglin Afb (VPS) G41372 2020-11-27 20:30:00
Orlando Sanford Intl (SFB) - Cincinnati Northern Kentucky Intl (CVG) G41364 2020-11-27 16:56:00
Cincinnati Northern Kentucky Intl (CVG) - Orlando Sanford Intl (SFB) G41388 2020-11-27 14:54:00
Orlando Sanford Intl (SFB) - Cincinnati Northern Kentucky Intl (CVG) G41384 2020-11-26 19:39:00
Cincinnati Northern Kentucky Intl (CVG) - Orlando Sanford Intl (SFB) G41347 2020-11-26 16:43:00
Fort Lauderdale Hollywood Intl (FLL) - Cincinnati Northern Kentucky Intl (CVG) G42801 2020-11-26 04:23:00
Cincinnati Northern Kentucky Intl (CVG) - Fort Lauderdale Hollywood Intl (FLL) G42800 2020-11-26 01:15:00
Phoenix-Mesa Gateway (AZA) - Cincinnati Northern Kentucky Intl (CVG) G41320 2020-11-25 22:02:00
Cincinnati Northern Kentucky Intl (CVG) - Phoenix-Mesa Gateway (AZA) G41316 2020-11-25 17:56:00
Punta Gorda Airport (PGD) - Cincinnati Northern Kentucky Intl (CVG) G41350 2020-11-25 01:57:00
Cincinnati Northern Kentucky Intl (CVG) - Punta Gorda Airport (PGD) G41346 2020-11-24 23:58:00
Time Lat Lon Altitude Heading Speed Vertical Rate
2020-10-21 04:06:35 GMT 26.903097 -81.996567 200 29 133 -704
2020-10-21 04:06:31 GMT 26.900711 -81.998070 250 29 134 -704
2020-10-21 04:06:20 GMT 26.895042 -82.001579 375 27 132 -640
2020-10-21 04:06:10 GMT 26.889364 -82.005020 500 29 133 -832
2020-10-21 04:06:00 GMT 26.883636 -82.008583 650 30 133 -640
2020-10-21 04:05:46 GMT 26.876541 -82.013092 750 29 133 -512
2020-10-21 04:05:37 GMT 26.871952 -82.015953 850 29 132 -576
2020-10-21 04:05:29 GMT 26.866693 -82.019279 950 29 134 -768
2020-10-21 04:05:18 GMT 26.861252 -82.022682 1,075 29 133 -640
2020-10-21 04:05:07 GMT 26.855568 -82.026352 1,200 29 136 -832
2020-10-21 04:04:57 GMT 26.849991 -82.029938 1,350 30 138 -896
2020-10-21 04:04:46 GMT 26.844301 -82.033859 1,450 33 137 -64
2020-10-21 04:04:35 GMT 26.837923 -82.039352 1,450 43 136 0
2020-10-21 04:04:26 GMT 26.834656 -82.043777 1,450 58 136 0
2020-10-21 04:04:16 GMT 26.832989 -82.050438 1,450 102 132 64
2020-10-21 04:04:06 GMT 26.835596 -82.057152 1,450 120 135 0
2020-10-21 04:03:54 GMT 26.839041 -82.063377 1,450 124 135 0
2020-10-21 04:03:45 GMT 26.842672 -82.069191 1,450 126 135 0
2020-10-21 04:03:34 GMT 26.846676 -82.074844 1,450 129 136 -64
2020-10-21 04:03:23 GMT 26.851227 -82.080513 1,450 133 141 0
2020-10-21 04:03:14 GMT 26.856125 -82.085960 1,475 136 152 -128
2020-10-21 04:03:02 GMT 26.862030 -82.091812 1,475 141 167 -64
2020-10-21 04:02:53 GMT 26.868462 -82.097450 1,475 144 183 -64
2020-10-21 04:02:41 GMT 26.876375 -82.102997 1,525 153 187 -320
2020-10-21 04:02:32 GMT 26.884104 -82.107010 1,550 159 190 0
2020-10-21 04:02:22 GMT 26.893478 -82.110260 1,550 168 196 0
2020-10-21 04:02:10 GMT 26.902725 -82.111664 1,550 177 203 0
2020-10-21 04:02:00 GMT 26.913385 -82.111603 1,525 185 211 128
2020-10-21 04:01:49 GMT 26.923279 -82.109795 1,525 196 227 -64
2020-10-21 04:01:40 GMT 26.933853 -82.106010 1,550 199 227 0
2020-10-21 04:01:28 GMT 26.944202 -82.102043 1,575 199 226 -192
2020-10-21 04:01:19 GMT 26.954304 -82.098244 1,675 199 229 -960
2020-10-21 04:01:08 GMT 26.965012 -82.094177 1,875 199 228 -1280
2020-10-21 04:01:02 GMT 26.971622 -82.091690 2,025 199 226 -1280
2020-10-21 04:00:58 GMT 26.975113 -82.090370 2,100 199 226 -1216
2020-10-21 04:00:55 GMT 26.978119 -82.089272 2,150 199 226 -1088
2020-10-21 04:00:48 GMT 26.985718 -82.086372 2,275 200 228 -768
2020-10-21 04:00:45 GMT 26.989014 -82.085075 2,325 200 229 -704
2020-10-21 04:00:36 GMT 26.996433 -82.082184 2,400 200 234 -576
2020-10-21 04:00:31 GMT 27.002289 -82.079895 2,450 200 236 -640
2020-10-21 04:00:27 GMT 27.007187 -82.077972 2,500 200 239 -640
2020-10-21 04:00:23 GMT 27.010025 -82.076889 2,525 200 240 -640
2020-10-21 04:00:15 GMT 27.018494 -82.073570 2,600 200 244 -640
2020-10-21 04:00:12 GMT 27.021606 -82.072380 2,650 200 247 -704
2020-10-21 04:00:06 GMT 27.029253 -82.069405 2,725 200 250 -704
2020-10-21 04:00:02 GMT 27.032547 -82.068130 2,750 200 251 -704
2020-10-21 03:59:56 GMT 27.040009 -82.065277 2,850 199 255 -768
2020-10-21 03:59:53 GMT 27.043917 -82.063751 2,875 199 258 -768
2020-10-21 03:59:44 GMT 27.052855 -82.060318 2,925 200 262 -128
2020-10-21 03:59:41 GMT 27.056299 -82.058945 2,925 200 267 0
2020-10-21 03:59:35 GMT 27.064819 -82.055565 2,950 200 275 -64
2020-10-21 03:59:32 GMT 27.068665 -82.053986 2,950 200 275 0
2020-10-21 03:59:25 GMT 27.076630 -82.050819 2,950 200 276 -64
2020-10-21 03:59:21 GMT 27.081070 -82.049057 2,950 200 276 -64
2020-10-21 03:59:15 GMT 27.088795 -82.045952 2,950 200 276 0
2020-10-21 03:59:09 GMT 27.094986 -82.043518 2,950 200 275 0
2020-10-21 03:59:03 GMT 27.102676 -82.040459 2,950 200 275 0
2020-10-21 03:59:00 GMT 27.106438 -82.039032 2,950 200 276 0
2020-10-21 03:58:54 GMT 27.113846 -82.036209 2,950 198 275 0
2020-10-21 03:58:50 GMT 27.118835 -82.034500 2,950 197 275 0
2020-10-21 03:58:44 GMT 27.126480 -82.032272 2,950 192 273 0
2020-10-21 03:58:40 GMT 27.131836 -82.031181 2,925 189 271 0
2020-10-21 03:58:32 GMT 27.141258 -82.029945 2,925 187 271 0
2020-10-21 03:58:28 GMT 27.145477 -82.029366 2,925 187 272 0
2020-10-21 03:58:22 GMT 27.153030 -82.028328 2,925 189 272 64
2020-10-21 03:58:19 GMT 27.157784 -82.027573 2,925 189 272 64
2020-10-21 03:58:13 GMT 27.165298 -82.026413 2,925 188 271 128
2020-10-21 03:58:08 GMT 27.170929 -82.025581 2,925 188 271 128
2020-10-21 03:58:01 GMT 27.181293 -82.024345 2,975 184 268 -576
2020-10-21 03:57:57 GMT 27.185158 -82.024086 3,000 182 267 -576
2020-10-21 03:57:52 GMT 27.191345 -82.024132 3,050 176 264 -832
2020-10-21 03:57:47 GMT 27.198051 -82.024719 3,150 173 263 -1216
2020-10-21 03:57:40 GMT 27.206478 -82.025772 3,300 173 264 -1536
2020-10-21 03:57:30 GMT 27.216843 -82.027039 3,525 173 265 -1600
2020-10-21 03:57:25 GMT 27.224306 -82.027939 3,775 173 267 0
2020-10-21 03:57:21 GMT 27.229477 -82.028587 3,775 173 267 -1152
2020-10-21 03:57:14 GMT 27.238785 -82.029686 3,900 173 269 -1152
2020-10-21 03:57:10 GMT 27.242138 -82.030106 3,950 173 270 -1216
2020-10-21 03:56:59 GMT 27.255295 -82.031700 4,200 173 272 -1536
2020-10-21 03:56:50 GMT 27.268478 -82.033302 4,475 173 273 -1472
2020-10-21 03:56:42 GMT 27.276810 -82.034340 4,625 173 274 -1408
2020-10-21 03:56:37 GMT 27.284172 -82.035233 4,775 173 274 -1536
2020-10-21 03:56:33 GMT 27.290268 -82.035950 4,875 173 275 -1472
2020-10-21 03:56:28 GMT 27.295212 -82.036568 5,025 173 281 -1280
2020-10-21 03:56:22 GMT 27.303261 -82.037552 5,150 173 275 -1664
2020-10-21 03:56:18 GMT 27.308075 -82.038177 5,250 173 276 -1536
2020-10-21 03:56:12 GMT 27.316910 -82.039268 5,425 173 276 -1600
2020-10-21 03:56:08 GMT 27.320950 -82.039772 5,525 173 276 -1664
2020-10-21 03:56:01 GMT 27.329655 -82.040825 5,700 173 276 -1728
2020-10-21 03:55:58 GMT 27.334717 -82.041443 5,825 173 276 -1664
2020-10-21 03:55:50 GMT 27.343016 -82.042465 6,000 173 276 -1664
2020-10-21 03:55:47 GMT 27.347855 -82.043045 6,100 173 276 -1664
2020-10-21 03:55:41 GMT 27.356552 -82.044083 6,275 173 276 -1472
2020-10-21 03:55:36 GMT 27.360752 -82.044632 6,400 173 277 -1472
2020-10-21 03:55:27 GMT 27.377243 -82.046570 6,650 173 281 -1280
2020-10-21 03:55:18 GMT 27.384247 -82.047455 6,775 173 282 -1344
2020-10-21 03:55:14 GMT 27.391010 -82.048279 6,875 173 283 -1344
2020-10-21 03:55:06 GMT 27.401367 -82.049522 7,125 173 282 -2368
2020-10-21 03:55:02 GMT 27.405396 -82.049995 7,275 173 281 -2624
2020-10-21 03:54:59 GMT 27.410843 -82.050652 7,450 173 281 -2624
2020-10-21 03:54:55 GMT 27.414734 -82.051132 7,825 173 280 -2368
2020-10-21 03:54:52 GMT 27.419037 -82.051651 7,700 173 280 -2304
2020-10-21 03:54:46 GMT 27.425629 -82.052483 7,900 173 281 -2176
2020-10-21 03:54:43 GMT 27.436707 -82.053825 8,100 173 282 -2240
2020-10-21 03:54:39 GMT 27.436707 -82.053825 8,275 173 283 -2240
2020-10-21 03:54:35 GMT 27.442219 -82.054504 8,375 173 283 -2304
2020-10-21 03:54:31 GMT 27.447418 -82.055176 8,525 173 283 -2432
2020-10-21 03:54:26 GMT 27.451900 -82.055725 8,750 173 283 -2496
2020-10-21 03:54:23 GMT 27.455841 -82.056213 8,800 173 283 -2496
2020-10-21 03:54:16 GMT 27.466425 -82.057518 9,125 173 283 -2432
2020-10-21 03:54:11 GMT 27.473362 -82.058418 9,350 173 284 -2176
2020-10-21 03:54:03 GMT 27.482758 -82.059578 9,575 173 287 -2048
2020-10-21 03:54:00 GMT 27.486832 -82.060097 9,700 173 288 -2176
2020-10-21 03:53:53 GMT 27.496311 -82.061272 9,975 173 291 -1984
2020-10-21 03:53:50 GMT 27.501572 -82.061905 10,075 173 293 -1920
2020-10-21 03:53:42 GMT 27.511675 -82.063118 10,250 174 299 -1024
2020-10-21 03:53:39 GMT 27.515724 -82.063538 10,275 174 303 -896
2020-10-21 03:53:35 GMT 27.521942 -82.064247 10,350 174 308 -832
2020-10-21 03:53:32 GMT 27.525375 -82.064659 10,375 174 311 -896
2020-10-21 03:53:28 GMT 27.530136 -82.065231 10,425 174 314 -896
2020-10-21 03:53:22 GMT 27.540985 -82.066475 10,550 174 323 -1024
2020-10-21 03:53:18 GMT 27.544912 -82.066917 10,600 174 325 -1024
2020-10-21 03:53:12 GMT 27.556597 -82.068291 10,700 173 332 -640
2020-10-21 03:53:09 GMT 27.560461 -82.068771 10,750 174 335 -576
2020-10-21 03:53:04 GMT 27.567764 -82.069633 10,825 173 340 -960
2020-10-21 03:53:01 GMT 27.572285 -82.070198 10,875 173 342 -1216
2020-10-21 03:52:58 GMT 27.577011 -82.070770 10,925 173 343 -1472
2020-10-21 03:52:51 GMT 27.588579 -82.072205 11,175 173 343 -2432
2020-10-21 03:52:48 GMT 27.592987 -82.072739 11,300 173 344 -2368
2020-10-21 03:52:43 GMT 27.600916 -82.073784 11,550 173 343 -2688
2020-10-21 03:52:40 GMT 27.605026 -82.074295 11,625 173 343 -3008
2020-10-21 03:52:37 GMT 27.611994 -82.075157 11,850 173 341 -3456
2020-10-21 03:52:33 GMT 27.617767 -82.075897 12,075 173 338 -3584
2020-10-21 03:52:29 GMT 27.622282 -82.076485 12,225 173 336 -3584
2020-10-21 03:52:26 GMT 27.626770 -82.077042 12,400 173 334 -3264
2020-10-21 03:52:20 GMT 27.637802 -82.078392 12,725 173 330 -2240
2020-10-21 03:52:16 GMT 27.642998 -82.079018 12,825 173 329 -1600
2020-10-21 03:52:12 GMT 27.649979 -82.079895 12,900 173 329 -768
2020-10-21 03:52:09 GMT 27.653183 -82.080254 12,925 173 329 -384
2020-10-21 03:52:06 GMT 27.658539 -82.080933 12,925 173 329 0
2020-10-21 03:52:01 GMT 27.665680 -82.081810 12,950 173 330 -64
2020-10-21 03:51:58 GMT 27.670395 -82.082436 12,925 173 331 0
2020-10-21 03:51:55 GMT 27.674980 -82.082977 12,925 173 331 0
2020-10-21 03:51:51 GMT 27.681702 -82.083832 12,925 173 331 0
2020-10-21 03:51:48 GMT 27.685501 -82.084297 12,925 173 330 64
2020-10-21 03:51:44 GMT 27.690248 -82.084877 12,925 173 334 64
2020-10-21 03:51:39 GMT 27.699745 -82.086044 12,925 173 331 64
2020-10-21 03:51:35 GMT 27.705872 -82.086838 12,925 173 335 64
2020-10-21 03:51:28 GMT 27.717110 -82.088203 12,925 173 335 0
2020-10-21 03:51:24 GMT 27.721766 -82.088737 12,925 173 336 0
2020-10-21 03:51:21 GMT 27.728933 -82.089630 12,925 173 340 -128
2020-10-21 03:51:17 GMT 27.738430 -82.090797 13,000 173 347 -768
2020-10-21 03:51:13 GMT 27.738430 -82.090797 13,000 173 347 -768
2020-10-21 03:51:10 GMT 27.744003 -82.091454 13,025 173 348 -960
2020-10-21 03:51:07 GMT 27.750301 -82.092224 13,075 173 351 -1088
2020-10-21 03:51:04 GMT 27.754990 -82.092796 13,225 173 354 0
2020-10-21 03:50:57 GMT 27.766548 -82.094177 13,325 173 355 -1920
2020-10-21 03:50:53 GMT 27.771948 -82.094864 13,425 173 355 -2432
2020-10-21 03:50:50 GMT 27.777832 -82.095596 13,600 173 355 -2496
2020-10-21 03:50:45 GMT 27.785889 -82.096581 13,800 173 354 -2816
2020-10-21 03:50:42 GMT 27.789452 -82.097031 13,900 173 354 -2624
2020-10-21 03:50:39 GMT 27.794678 -82.097672 14,050 173 354 -2432
2020-10-21 03:50:36 GMT 27.800720 -82.098396 14,300 173 354 -2368
2020-10-21 03:50:33 GMT 27.804626 -82.098877 14,275 173 354 -2368
2020-10-21 03:50:29 GMT 27.811983 -82.099831 14,475 173 354 -2304
2020-10-21 03:50:25 GMT 27.818161 -82.100571 14,600 173 354 -2048
2020-10-21 03:50:21 GMT 27.824411 -82.101357 14,725 173 355 -1984
2020-10-21 03:50:17 GMT 27.831940 -82.102333 14,900 173 356 -2112
2020-10-21 03:50:12 GMT 27.838989 -82.103210 15,050 173 356 -2432
2020-10-21 03:50:09 GMT 27.842468 -82.103630 15,150 173 356 -2560
2020-10-21 03:50:05 GMT 27.850994 -82.104683 15,375 173 356 -2560
2020-10-21 03:50:02 GMT 27.856718 -82.105423 15,550 173 356 -2560
2020-10-21 03:49:59 GMT 27.860184 -82.105858 15,550 173 356 -2560
2020-10-21 03:49:56 GMT 27.866915 -82.106689 15,775 173 356 -2368
2020-10-21 03:49:52 GMT 27.872818 -82.107414 15,900 173 356 -2304
2020-10-21 03:49:49 GMT 27.877714 -82.108009 16,175 173 358 -1856
2020-10-21 03:49:44 GMT 27.885815 -82.108963 16,175 173 358 -1856
2020-10-21 03:49:41 GMT 27.894745 -82.110054 16,300 173 359 -1792
2020-10-21 03:49:38 GMT 27.894745 -82.110054 16,350 173 360 -1792
2020-10-21 03:49:34 GMT 27.902893 -82.111092 16,500 173 362 -1856
2020-10-21 03:49:31 GMT 27.907379 -82.111610 16,600 173 363 -1728
2020-10-21 03:49:28 GMT 27.913746 -82.112396 16,675 173 367 -1024
2020-10-21 03:49:25 GMT 27.916122 -82.112694 16,750 173 368 -896
2020-10-21 03:49:21 GMT 27.924408 -82.113686 16,800 173 369 -832
2020-10-21 03:49:18 GMT 27.930180 -82.114403 16,850 173 371 -832
2020-10-21 03:49:15 GMT 27.933809 -82.114830 16,875 173 373 -896
2020-10-21 03:49:11 GMT 27.940018 -82.115616 16,950 173 376 -1152
2020-10-21 03:49:08 GMT 27.945236 -82.116257 17,025 173 378 -1728
2020-10-21 03:49:05 GMT 27.952057 -82.117096 17,150 173 379 -2176
2020-10-21 03:49:01 GMT 27.960068 -82.118050 17,325 173 380 -2560
2020-10-21 03:48:58 GMT 27.963593 -82.118469 17,425 173 380 -2624
2020-10-21 03:48:54 GMT 27.969727 -82.119209 17,650 173 380 -2240
2020-10-21 03:48:51 GMT 27.975861 -82.119949 17,700 173 381 -2176
2020-10-21 03:48:48 GMT 27.982550 -82.120758 17,825 173 382 -2112
2020-10-21 03:48:45 GMT 27.988541 -82.121483 17,975 173 382 -2560
2020-10-21 03:48:42 GMT 27.992752 -82.122009 18,125 173 381 -3072
2020-10-21 03:48:39 GMT 27.997633 -82.122589 18,250 173 379 -3328
2020-10-21 03:48:36 GMT 28.003922 -82.123383 18,400 173 377 -3328
2020-10-21 03:48:32 GMT 28.010010 -82.124123 18,575 173 374 -2944
2020-10-21 03:48:28 GMT 28.015686 -82.124809 18,750 173 372 -2176
2020-10-21 03:48:24 GMT 28.021887 -82.125603 18,850 173 371 -1792
2020-10-21 03:48:21 GMT 28.027519 -82.126305 18,900 173 370 -1472
2020-10-21 03:48:18 GMT 28.033630 -82.127029 18,975 173 368 -576
2020-10-21 03:48:13 GMT 28.041765 -82.128029 19,000 173 368 0
2020-10-21 03:48:10 GMT 28.046860 -82.128670 19,000 173 367 0
2020-10-21 03:48:07 GMT 28.051254 -82.129250 19,000 173 367 0
2020-10-21 03:48:02 GMT 28.059034 -82.130180 18,975 173 367 0
2020-10-21 03:47:59 GMT 28.065645 -82.130989 18,975 173 366 0
2020-10-21 03:47:56 GMT 28.076818 -82.132385 18,975 173 366 64
2020-10-21 03:47:53 GMT 28.076818 -82.132385 18,975 173 366 64
2020-10-21 03:47:49 GMT 28.082886 -82.133156 18,975 173 366 64
2020-10-21 03:47:45 GMT 28.088791 -82.133896 18,975 173 367 64
2020-10-21 03:47:41 GMT 28.094376 -82.134583 18,975 173 367 64
2020-10-21 03:47:38 GMT 28.099302 -82.135185 18,975 173 367 64
2020-10-21 03:47:35 GMT 28.105728 -82.135956 18,975 173 367 0
2020-10-21 03:47:29 GMT 28.122952 -82.138153 18,975 173 367 0
2020-10-21 03:47:25 GMT 28.122952 -82.138153 18,975 173 367 0
2020-10-21 03:47:22 GMT 28.129562 -82.138962 18,975 173 367 0
2020-10-21 03:47:17 GMT 28.135345 -82.139648 18,975 173 367 -64
2020-10-21 03:47:13 GMT 28.143631 -82.140709 19,000 173 367 -128
2020-10-21 03:47:10 GMT 28.147532 -82.141220 19,000 173 368 -192
2020-10-21 03:47:07 GMT 28.152969 -82.141869 19,025 173 369 -256
2020-10-21 03:47:04 GMT 28.158751 -82.142624 19,050 173 370 -512
2020-10-21 03:47:01 GMT 28.165733 -82.143486 19,100 173 372 -896
2020-10-21 03:46:57 GMT 28.169178 -82.143913 19,125 173 374 -1152
2020-10-21 03:46:54 GMT 28.173660 -82.144455 19,175 173 375 -1280
2020-10-21 03:46:51 GMT 28.179382 -82.145142 19,225 173 376 -1472
2020-10-21 03:46:47 GMT 28.188078 -82.146233 19,400 173 378 -1856
2020-10-21 03:46:43 GMT 28.196457 -82.147255 19,450 173 379 -1856
2020-10-21 03:46:37 GMT 28.204330 -82.148209 19,750 173 380 -1856
2020-10-21 03:46:34 GMT 28.210464 -82.149002 19,825 173 380 -1856
2020-10-21 03:46:31 GMT 28.214493 -82.149475 19,825 173 380 -1856
2020-10-21 03:46:27 GMT 28.223099 -82.150536 20,050 173 381 -1856
2020-10-21 03:46:24 GMT 28.228207 -82.151184 20,100 173 382 -1856
2020-10-21 03:46:18 GMT 28.237005 -82.152313 20,250 173 383 -1856
2020-10-21 03:46:15 GMT 28.243895 -82.153175 20,400 173 383 -1856
2020-10-21 03:46:12 GMT 28.250273 -82.153984 20,500 173 384 -1856
2020-10-21 03:46:09 GMT 28.255766 -82.154686 20,575 173 384 -1856
2020-10-21 03:46:05 GMT 28.263214 -82.155602 20,725 173 385 -1856
2020-10-21 03:46:01 GMT 28.269424 -82.156395 20,825 173 386 -1920
2020-10-21 03:45:56 GMT 28.278156 -82.157486 21,000 173 386 -2048
2020-10-21 03:45:52 GMT 28.285446 -82.158348 21,125 173 386 -2048
2020-10-21 03:45:47 GMT 28.294868 -82.159531 21,300 173 387 -2048
2020-10-21 03:45:42 GMT 28.302923 -82.160553 21,475 173 388 -2048
2020-10-21 03:45:38 GMT 28.311172 -82.161575 21,625 173 388 -2048
2020-10-21 03:45:33 GMT 28.320660 -82.162766 21,800 173 388 -2048
2020-10-21 03:45:30 GMT 28.323500 -82.163086 21,850 173 388 -2048
2020-10-21 03:45:26 GMT 28.329620 -82.163841 21,925 173 389 -2048
2020-10-21 03:45:23 GMT 28.334997 -82.164543 22,100 173 389 -2048
2020-10-21 03:45:20 GMT 28.342529 -82.165482 22,175 173 390 -2048
2020-10-21 03:45:17 GMT 28.348265 -82.166153 22,325 173 390 -2048
2020-10-21 03:45:13 GMT 28.355293 -82.167068 22,450 173 390 -2048
2020-10-21 03:45:09 GMT 28.361578 -82.167824 22,550 173 390 -2048
2020-10-21 03:45:06 GMT 28.366837 -82.168488 22,675 173 391 -2048
2020-10-21 03:45:02 GMT 28.373840 -82.169334 22,875 173 391 -2048
2020-10-21 03:44:59 GMT 28.379791 -82.170074 23,025 173 391 -2112
2020-10-21 03:44:55 GMT 28.385599 -82.170784 23,025 173 392 -2112
2020-10-21 03:44:52 GMT 28.393002 -82.171646 23,175 173 392 -2048
2020-10-21 03:44:49 GMT 28.397888 -82.172241 23,225 173 392 -2048
2020-10-21 03:44:46 GMT 28.404739 -82.173088 23,400 173 393 -2048
2020-10-21 03:44:40 GMT 28.415085 -82.174355 23,525 173 393 -2048
2020-10-21 03:44:37 GMT 28.419443 -82.174881 23,675 173 394 -2112
2020-10-21 03:44:31 GMT 28.431267 -82.176331 23,900 173 395 -2112
2020-10-21 03:44:27 GMT 28.439648 -82.177414 24,075 173 395 -2048
2020-10-21 03:44:22 GMT 28.446770 -82.178276 24,200 173 396 -2048
2020-10-21 03:44:18 GMT 28.455139 -82.179321 24,350 173 397 -2176
2020-10-21 03:44:14 GMT 28.463379 -82.180374 24,525 173 398 -2048
2020-10-21 03:44:10 GMT 28.469833 -82.181221 24,575 173 398 -2048
2020-10-21 03:44:06 GMT 28.476974 -82.182121 24,775 173 399 -2112
2020-10-21 03:44:00 GMT 28.488235 -82.183540 24,975 173 400 -2112
2020-10-21 03:43:57 GMT 28.493368 -82.184196 25,200 173 401 -2112
2020-10-21 03:43:54 GMT 28.496532 -82.184631 25,150 173 401 -2112
2020-10-21 03:43:51 GMT 28.503750 -82.185539 25,275 173 402 -2112
2020-10-21 03:43:47 GMT 28.511536 -82.186501 25,350 173 402 -2112
2020-10-21 03:43:44 GMT 28.518042 -82.187317 25,550 173 403 -2112
2020-10-21 03:43:41 GMT 28.522842 -82.187927 25,650 173 404 -2112
2020-10-21 03:43:38 GMT 28.527351 -82.188507 25,725 173 404 -2176
2020-10-21 03:43:34 GMT 28.534613 -82.189423 25,875 173 405 -2176
2020-10-21 03:43:30 GMT 28.542294 -82.190338 26,025 173 406 -2176
2020-10-21 03:43:25 GMT 28.552414 -82.191628 26,225 173 407 -2176
2020-10-21 03:43:21 GMT 28.559326 -82.192474 26,350 173 408 -2176
2020-10-21 03:43:17 GMT 28.567062 -82.193474 26,500 173 408 -2240
2020-10-21 03:43:14 GMT 28.574020 -82.194321 26,650 173 409 -2240
2020-10-21 03:43:10 GMT 28.581390 -82.195267 26,775 173 410 -2240
2020-10-21 03:43:05 GMT 28.590662 -82.196480 26,975 173 411 -2304
2020-10-21 03:43:02 GMT 28.597134 -82.197281 27,225 173 412 -2240
2020-10-21 03:42:59 GMT 28.601303 -82.197807 27,225 173 412 -2240
2020-10-21 03:42:56 GMT 28.606430 -82.198494 27,275 173 413 -2240
2020-10-21 03:42:52 GMT 28.613659 -82.199387 27,400 173 413 -2240
2020-10-21 03:42:49 GMT 28.620895 -82.200287 27,550 173 414 -2240
2020-10-21 03:42:45 GMT 28.626087 -82.200943 27,650 173 415 -2240
2020-10-21 03:42:42 GMT 28.633909 -82.201912 27,825 173 416 -2176
2020-10-21 03:42:39 GMT 28.641220 -82.202820 27,925 173 417 -2240
2020-10-21 03:42:36 GMT 28.651794 -82.204147 28,175 173 418 -2176
2020-10-21 03:42:30 GMT 28.656601 -82.204781 28,250 173 418 -2240
2020-10-21 03:42:27 GMT 28.661453 -82.205360 28,350 173 419 -2240
2020-10-21 03:42:24 GMT 28.667053 -82.206062 28,450 173 419 -2240
2020-10-21 03:42:21 GMT 28.673803 -82.206924 28,675 173 421 -2304
2020-10-21 03:42:18 GMT 28.681000 -82.207840 28,725 173 421 -2240
2020-10-21 03:42:14 GMT 28.689911 -82.208969 28,850 173 421 -2304
2020-10-21 03:42:11 GMT 28.695740 -82.209686 29,025 173 422 -2368
2020-10-21 03:42:07 GMT 28.702387 -82.210480 29,150 173 423 -2304
2020-10-21 03:42:03 GMT 28.709185 -82.211342 29,275 173 423 -2240
2020-10-21 03:41:59 GMT 28.716431 -82.212280 29,400 173 424 -2240
2020-10-21 03:41:56 GMT 28.722685 -82.213066 29,625 173 425 -2304
2020-10-21 03:41:53 GMT 28.729752 -82.213913 29,700 173 425 -2304
2020-10-21 03:41:50 GMT 28.735016 -82.214600 29,800 173 426 -2304
2020-10-21 03:41:46 GMT 28.744053 -82.215698 30,025 173 427 -2304
2020-10-21 03:41:42 GMT 28.749756 -82.216454 30,275 173 428 -2304
2020-10-21 03:41:38 GMT 28.756668 -82.217293 30,225 173 427 -2304
2020-10-21 03:41:35 GMT 28.762802 -82.218086 30,325 173 428 -2304
2020-10-21 03:41:32 GMT 28.770859 -82.219093 30,500 173 429 -2304
2020-10-21 03:41:25 GMT 28.784925 -82.220871 30,775 173 430 -2304
2020-10-21 03:41:20 GMT 28.794655 -82.222054 30,975 173 431 -2368
2020-10-21 03:41:15 GMT 28.803406 -82.223160 31,150 173 431 -2368
2020-10-21 03:41:10 GMT 28.813927 -82.224480 31,350 173 432 -2432
2020-10-21 03:41:07 GMT 28.819336 -82.225166 31,450 173 432 -2432
2020-10-21 03:41:04 GMT 28.824326 -82.225800 31,625 173 433 -2432
2020-10-21 03:41:01 GMT 28.831104 -82.226631 31,825 173 433 -2432
2020-10-21 03:40:58 GMT 28.839890 -82.227753 31,875 173 434 -2432
2020-10-21 03:40:55 GMT 28.844885 -82.228355 31,975 173 434 -2432
2020-10-21 03:40:51 GMT 28.851700 -82.229233 32,100 173 435 -2432
2020-10-21 03:40:47 GMT 28.857925 -82.230026 32,225 173 435 -2304
2020-10-21 03:40:44 GMT 28.865341 -82.230972 32,350 173 436 -2432
2020-10-21 03:40:40 GMT 28.880869 -82.232933 32,650 173 438 -2240
2020-10-21 03:40:34 GMT 28.886124 -82.233566 32,725 173 439 -2304
2020-10-21 03:40:30 GMT 28.893814 -82.234566 32,875 173 439 -2240
2020-10-21 03:40:27 GMT 28.899490 -82.235306 33,000 173 437 -1024
2020-10-21 03:40:23 GMT 28.907404 -82.236275 33,125 173 441 -2688
2020-10-21 03:40:20 GMT 28.915512 -82.237312 33,375 173 440 -2432
2020-10-21 03:40:17 GMT 28.919403 -82.237785 33,375 173 440 -2432
2020-10-21 03:40:14 GMT 28.926498 -82.238686 33,550 173 438 -1600
2020-10-21 03:40:10 GMT 28.934961 -82.239777 33,625 173 437 -1152
2020-10-21 03:40:06 GMT 28.943249 -82.240799 33,725 173 436 -960
2020-10-21 03:40:03 GMT 28.949295 -82.241539 33,750 173 436 -1024
2020-10-21 03:39:57 GMT 28.960100 -82.242950 33,875 173 435 -960
2020-10-21 03:39:53 GMT 28.966736 -82.243759 33,900 173 435 -960
2020-10-21 03:39:48 GMT 28.979559 -82.245377 34,000 173 434 -1088
2020-10-21 03:39:45 GMT 28.985750 -82.246132 34,075 173 434 -1024
2020-10-21 03:39:42 GMT 28.992142 -82.246979 34,125 173 433 -1024
2020-10-21 03:39:39 GMT 28.997948 -82.247688 34,175 173 433 -1024
2020-10-21 03:39:36 GMT 29.001938 -82.248192 34,200 173 432 -1024
2020-10-21 03:39:32 GMT 29.012100 -82.249458 34,275 173 432 -960
2020-10-21 03:39:26 GMT 29.022858 -82.250786 34,375 173 429 -960
2020-10-21 03:39:23 GMT 29.029184 -82.251572 34,425 173 430 -960
2020-10-21 03:39:20 GMT 29.032974 -82.252052 34,450 173 430 -960
2020-10-21 03:39:16 GMT 29.043045 -82.253319 34,650 173 428 -896
2020-10-21 03:39:11 GMT 29.052740 -82.254532 34,625 173 429 -896
2020-10-21 03:39:06 GMT 29.062841 -82.255768 34,700 173 428 -960
2020-10-21 03:39:03 GMT 29.069916 -82.256699 34,750 173 428 -960
2020-10-21 03:39:00 GMT 29.074081 -82.257225 34,775 173 428 -1024
2020-10-21 03:38:55 GMT 29.083557 -82.258408 34,850 173 428 -1024
2020-10-21 03:38:52 GMT 29.089874 -82.259232 34,925 173 428 -1024
2020-10-21 03:38:49 GMT 29.094406 -82.259811 34,950 173 428 -1088
2020-10-21 03:38:45 GMT 29.104477 -82.261086 35,050 173 428 -1024
2020-10-21 03:38:40 GMT 29.114136 -82.262299 35,125 173 428 -1024
2020-10-21 03:38:35 GMT 29.124571 -82.263634 35,225 173 427 -960
2020-10-21 03:38:29 GMT 29.134624 -82.264923 35,300 173 427 -960
2020-10-21 03:38:25 GMT 29.144073 -82.266098 35,375 173 427 -896
2020-10-21 03:38:22 GMT 29.150360 -82.266914 35,425 173 426 -896
2020-10-21 03:38:18 GMT 29.155294 -82.267563 35,525 173 426 -960
2020-10-21 03:38:14 GMT 29.165302 -82.268799 35,575 173 426 -960
2020-10-21 03:38:11 GMT 29.170807 -82.269531 35,575 173 426 -960
2020-10-21 03:38:08 GMT 29.176483 -82.270271 35,625 173 425 -1024
2020-10-21 03:38:03 GMT 29.185879 -82.271492 35,725 173 425 -1024
2020-10-21 03:38:00 GMT 29.193146 -82.272385 35,775 173 425 -1024
2020-10-21 03:37:56 GMT 29.199234 -82.273178 35,825 173 425 -1088
2020-10-21 03:37:52 GMT 29.216650 -82.275375 35,950 173 425 -1088
2020-10-21 03:37:48 GMT 29.216650 -82.275375 36,000 173 425 -1024
2020-10-21 03:37:41 GMT 29.228054 -82.276825 36,100 173 424 -960
2020-10-21 03:37:38 GMT 29.235077 -82.277771 36,150 173 424 -896
2020-10-21 03:37:33 GMT 29.249542 -82.279572 36,250 173 423 -896
2020-10-21 03:37:30 GMT 29.249542 -82.279572 36,250 173 423 -896
2020-10-21 03:37:26 GMT 29.257338 -82.280594 36,300 173 423 -896
2020-10-21 03:37:21 GMT 29.267626 -82.281891 36,525 173 422 -1088
2020-10-21 03:37:17 GMT 29.278145 -82.283234 36,500 173 421 -1088
2020-10-21 03:37:12 GMT 29.284561 -82.284004 36,550 173 421 -1088
2020-10-21 03:37:09 GMT 29.292297 -82.285011 36,625 173 421 -1088
2020-10-21 03:37:06 GMT 29.297333 -82.285645 36,675 173 421 -1088
2020-10-21 03:36:59 GMT 29.309372 -82.287178 36,800 173 419 -960
2020-10-21 03:36:56 GMT 29.318436 -82.288338 37,300 173 413 -832
2020-10-21 03:36:50 GMT 29.335052 -82.290398 36,975 173 417 -896
2020-10-21 03:36:46 GMT 29.335052 -82.290398 37,000 173 417 -896
2020-10-21 03:36:40 GMT 29.348465 -82.292137 37,100 173 416 -832
2020-10-21 03:36:36 GMT 29.354782 -82.292931 37,150 173 415 -896
2020-10-21 03:36:30 GMT 29.368561 -82.294678 37,250 173 414 -896
2020-10-21 03:36:27 GMT 29.374462 -82.295410 37,300 173 414 -896
2020-10-21 03:36:24 GMT 29.378265 -82.295891 37,325 173 413 -832
2020-10-21 03:36:19 GMT 29.388941 -82.297188 37,400 173 413 -832
2020-10-21 03:36:14 GMT 29.395597 -82.298042 37,450 173 414 -832
2020-10-21 03:36:08 GMT 29.409748 -82.299820 37,550 173 415 -960
2020-10-21 03:36:04 GMT 29.415482 -82.300537 37,575 173 415 -960
2020-10-21 03:35:58 GMT 29.429487 -82.302299 37,650 173 417 -1024
2020-10-21 03:35:54 GMT 29.434891 -82.303024 37,725 173 419 -1024
2020-10-21 03:35:50 GMT 29.449219 -82.304817 37,825 173 421 -768
2020-10-21 03:35:47 GMT 29.449219 -82.304817 37,850 173 421 -896
2020-10-21 03:35:44 GMT 29.454849 -82.305557 37,900 173 421 -768
2020-10-21 03:35:37 GMT 29.476227 -82.308304 37,975 173 421 0
2020-10-21 03:35:32 GMT 29.476227 -82.308304 37,975 173 421 0
2020-10-21 03:35:26 GMT 29.491745 -82.310257 37,975 173 421 0
2020-10-21 03:35:22 GMT 29.496185 -82.310837 37,975 173 421 0
2020-10-21 03:35:18 GMT 29.503969 -82.311829 37,975 173 421 0
2020-10-21 03:35:15 GMT 29.510559 -82.312691 37,975 173 421 0
2020-10-21 03:35:12 GMT 29.515608 -82.313339 37,975 173 421 0
2020-10-21 03:35:08 GMT 29.525665 -82.314590 38,000 173 421 -64
2020-10-21 03:35:04 GMT 29.530746 -82.315224 37,975 173 421 0
2020-10-21 03:35:00 GMT 29.548782 -82.317543 38,000 173 421 -64
2020-10-21 03:34:55 GMT 29.548782 -82.317543 37,975 173 421 0
2020-10-21 03:34:52 GMT 29.554386 -82.318237 37,975 173 421 0
2020-10-21 03:34:49 GMT 29.563698 -82.319427 38,000 173 421 0
2020-10-21 03:34:43 GMT 29.572998 -82.320610 38,000 173 421 0
2020-10-21 03:34:40 GMT 29.577850 -82.321243 37,975 173 421 0
2020-10-21 03:34:35 GMT 29.589859 -82.322762 37,975 173 421 0
2020-10-21 03:34:32 GMT 29.596069 -82.323570 37,975 173 421 0
2020-10-21 03:34:27 GMT 29.603453 -82.324486 37,975 173 421 0
2020-10-21 03:34:23 GMT 29.617046 -82.326210 37,975 173 421 -64
2020-10-21 03:34:16 GMT 29.624222 -82.327103 37,975 173 421 -64
2020-10-21 03:34:13 GMT 29.633526 -82.328316 37,975 173 421 -64
2020-10-21 03:34:09 GMT 29.638000 -82.328903 38,000 173 421 -64
2020-10-21 03:34:06 GMT 29.644606 -82.329712 38,000 173 421 0
2020-10-21 03:34:02 GMT 29.655441 -82.331123 38,000 173 421 64
2020-10-21 03:33:58 GMT 29.659363 -82.331650 38,000 173 421 64
2020-10-21 03:33:55 GMT 29.664762 -82.332352 37,975 173 421 64
2020-10-21 03:33:51 GMT 29.674255 -82.333549 37,975 173 421 0
2020-10-21 03:33:45 GMT 29.684732 -82.334885 37,975 173 421 0
2020-10-21 03:33:41 GMT 29.693905 -82.336067 37,975 173 421 0
2020-10-21 03:33:38 GMT 29.698746 -82.336716 37,975 173 421 0
2020-10-21 03:33:35 GMT 29.704563 -82.337410 37,975 173 421 0
2020-10-21 03:33:30 GMT 29.715830 -82.338867 37,975 173 421 0
2020-10-21 03:33:27 GMT 29.719692 -82.339355 37,975 173 421 0
2020-10-21 03:33:24 GMT 29.725327 -82.340103 37,975 173 421 0
2020-10-21 03:33:19 GMT 29.735243 -82.341347 37,975 173 421 0
2020-10-21 03:33:14 GMT 29.744970 -82.342583 37,975 173 421 0
2020-10-21 03:33:09 GMT 29.754841 -82.343819 37,975 173 421 0
2020-10-21 03:33:06 GMT 29.762428 -82.344788 37,975 173 421 0
2020-10-21 03:32:56 GMT 29.780273 -82.347069 37,975 173 422 -64
2020-10-21 03:32:53 GMT 29.785936 -82.347809 37,975 173 422 -64
2020-10-21 03:32:49 GMT 29.795425 -82.348976 37,975 173 421 -64
2020-10-21 03:32:43 GMT 29.805725 -82.350296 37,975 173 421 0
2020-10-21 03:32:38 GMT 29.815659 -82.351562 37,975 173 421 0
2020-10-21 03:32:34 GMT 29.823395 -82.352562 37,975 173 421 64
2020-10-21 03:32:31 GMT 29.828247 -82.353149 37,975 173 421 64
2020-10-21 03:32:27 GMT 29.837936 -82.354378 37,975 173 421 64
2020-10-21 03:32:22 GMT 29.846466 -82.355469 37,975 173 421 0
2020-10-21 03:32:16 GMT 29.857544 -82.356895 37,975 173 421 0
2020-10-21 03:32:12 GMT 29.865875 -82.357948 37,975 173 420 0
2020-10-21 03:32:07 GMT 29.876947 -82.359383 37,975 173 420 0
2020-10-21 03:32:02 GMT 29.887390 -82.360748 37,975 173 420 0
2020-10-21 03:31:54 GMT 29.900574 -82.362442 37,975 173 420 0
2020-10-21 03:31:50 GMT 29.908493 -82.363449 37,975 173 420 0
2020-10-21 03:31:43 GMT 29.921677 -82.365150 37,975 173 420 0
2020-10-21 03:31:39 GMT 29.928818 -82.366013 37,975 173 420 0
2020-10-21 03:31:35 GMT 29.937927 -82.367195 37,975 173 420 0
2020-10-21 03:31:32 GMT 29.948547 -82.368538 37,975 173 420 0
2020-10-21 03:31:29 GMT 29.948547 -82.368538 37,975 173 420 0
2020-10-21 03:31:25 GMT 29.959019 -82.369888 37,975 173 420 0
2020-10-21 03:31:22 GMT 29.961905 -82.370270 37,975 173 420 64
2020-10-21 03:31:19 GMT 29.968700 -82.371147 37,975 173 420 64
2020-10-21 03:31:13 GMT 29.979315 -82.372467 37,950 173 420 0
2020-10-21 03:31:08 GMT 29.988626 -82.373672 37,950 173 420 0
2020-10-21 03:31:04 GMT 29.998495 -82.374886 37,950 173 420 0
2020-10-21 03:31:01 GMT 30.002747 -82.375435 37,950 173 420 0
2020-10-21 03:30:58 GMT 30.008364 -82.376144 37,950 173 420 64
2020-10-21 03:30:51 GMT 30.022064 -82.377914 37,950 173 419 64
2020-10-21 03:30:47 GMT 30.029034 -82.378784 37,950 173 419 64
2020-10-21 03:30:43 GMT 30.039642 -82.380173 37,950 173 419 0
2020-10-21 03:30:37 GMT 30.050308 -82.381523 37,950 173 419 0
2020-10-21 03:30:30 GMT 30.063446 -82.383186 37,950 173 419 0
2020-10-21 03:30:26 GMT 30.072876 -82.384377 37,950 173 419 0
2020-10-21 03:30:21 GMT 30.082150 -82.385597 37,950 173 419 0
2020-10-21 03:30:17 GMT 30.091042 -82.386696 37,950 173 419 0
2020-10-21 03:30:08 GMT 30.104774 -82.388451 37,950 173 419 0
2020-10-21 03:30:02 GMT 30.117325 -82.390030 37,950 173 419 -64
2020-10-21 03:29:57 GMT 30.128143 -82.391418 37,950 173 419 -64
2020-10-21 03:29:48 GMT 30.144157 -82.393509 37,950 173 419 0
2020-10-21 03:29:43 GMT 30.152815 -82.394608 37,975 173 419 0
2020-10-21 03:29:37 GMT 30.165571 -82.396255 37,975 173 419 0
2020-10-21 03:29:30 GMT 30.180405 -82.398163 37,950 173 419 0
2020-10-21 03:29:27 GMT 30.184099 -82.398666 37,950 173 419 0
2020-10-21 03:29:19 GMT 30.199539 -82.400635 37,975 173 419 -64
2020-10-21 03:29:16 GMT 30.205139 -82.401360 37,975 173 419 -64
2020-10-21 03:29:10 GMT 30.219433 -82.403229 37,975 173 420 0
2020-10-21 03:29:05 GMT 30.226044 -82.404083 37,975 173 420 -64
2020-10-21 03:28:57 GMT 30.241871 -82.406143 37,975 173 420 -64
2020-10-21 03:28:48 GMT 30.261795 -82.408768 37,975 173 420 0
2020-10-21 03:28:42 GMT 30.270493 -82.409904 38,000 173 420 -64
2020-10-21 03:28:38 GMT 30.279390 -82.411026 38,000 173 420 -64
2020-10-21 03:28:28 GMT 30.301689 -82.413940 38,000 173 421 -64
2020-10-21 03:28:20 GMT 30.313328 -82.415421 38,000 173 421 0
2020-10-21 03:28:15 GMT 30.323044 -82.416687 38,000 173 421 0
2020-10-21 03:28:06 GMT 30.342819 -82.419327 38,000 173 422 0
2020-10-21 03:27:56 GMT 30.361313 -82.421692 38,000 173 422 0
2020-10-21 03:27:46 GMT 30.381729 -82.424385 38,025 173 423 0
2020-10-21 03:27:35 GMT 30.401823 -82.426956 38,025 173 423 -64
2020-10-21 03:27:24 GMT 30.422306 -82.429649 38,025 173 425 64
2020-10-21 03:27:01 GMT 30.467468 -82.435539 37,975 173 425 64
2020-10-21 03:26:54 GMT 30.483948 -82.437637 37,975 173 425 0
2020-10-21 03:26:31 GMT 30.527023 -82.443237 37,975 173 424 0
2020-10-21 03:26:21 GMT 30.545975 -82.445663 37,975 173 424 64
2020-10-21 03:26:11 GMT 30.568268 -82.448570 37,975 173 424 0
2020-10-21 03:26:01 GMT 30.587997 -82.451103 37,975 173 424 0
2020-10-21 03:25:50 GMT 30.607306 -82.453659 37,975 173 423 64
2020-10-21 03:25:40 GMT 30.645105 -82.458603 37,975 173 422 0
2020-10-21 03:25:24 GMT 30.656937 -82.460091 37,975 173 422 0
2020-10-21 03:25:19 GMT 30.668613 -82.461624 37,975 173 421 0
2020-10-21 03:25:08 GMT 30.688751 -82.464241 37,975 173 421 64
2020-10-21 03:24:18 GMT 30.785692 -82.477058 37,925 173 418 0
2020-10-21 03:24:04 GMT 30.812485 -82.480507 37,925 173 418 0
2020-10-21 03:23:57 GMT 30.825588 -82.482224 37,925 173 418 0
2020-10-21 03:22:30 GMT 30.995819 -82.504417 37,975 173 418 -64
2020-10-21 03:20:01 GMT 31.283756 -82.542259 38,025 173 425 128
2020-10-21 03:17:33 GMT 31.582500 -82.581947 38,000 173 413
2020-10-21 03:17:21 GMT 31.609167 -82.586670 38,000 173 412
2020-10-21 03:16:32 GMT 31.695278 -82.596947 38,000 173 412
2020-10-21 03:15:31 GMT 31.811390 -82.612221 38,000 173 413
We lost coverage of the aircraft here for a total of 7 minutes
2020-10-21 03:08:35 GMT 32.602070 -82.718697 37,975 173 420 0
2020-10-21 03:08:26 GMT 32.615250 -82.720512 37,975 173 420 0
2020-10-21 03:07:13 GMT 32.757935 -82.739906 37,550 173 415 448
2020-10-21 03:06:55 GMT 32.793118 -82.744766 37,375 173 415 960
2020-10-21 03:06:49 GMT 32.804619 -82.746330 37,275 173 416 960
2020-10-21 03:06:41 GMT 32.817280 -82.748070 37,150 173 418 960
2020-10-21 03:06:32 GMT 32.838272 -82.750931 37,025 173 418 512
2020-10-21 03:06:20 GMT 32.858322 -82.753746 36,975 173 417 128
2020-10-21 03:06:10 GMT 32.879429 -82.756645 36,975 173 416 0
2020-10-21 03:05:59 GMT 32.898373 -82.759277 36,975 173 416 0
2020-10-21 03:05:49 GMT 32.918884 -82.762039 36,975 173 416 0
2020-10-21 03:05:37 GMT 32.941433 -82.765167 36,975 173 415 -64
2020-10-21 03:05:24 GMT 32.967682 -82.768745 37,000 173 416 -64
2020-10-21 03:05:18 GMT 32.979561 -82.770378 37,000 173 416 0
2020-10-21 03:05:07 GMT 32.999298 -82.773071 37,000 173 416 0
2020-10-21 03:04:56 GMT 33.021149 -82.776047 37,000 173 416 -64
2020-10-21 03:04:44 GMT 33.042641 -82.779015 37,000 173 417 0
2020-10-21 03:04:35 GMT 33.059910 -82.781364 37,000 173 417 64
2020-10-21 03:04:25 GMT 33.081230 -82.784279 36,975 173 417 128
2020-10-21 03:04:13 GMT 33.102402 -82.787148 36,950 173 418 64
2020-10-21 03:04:04 GMT 33.122803 -82.789940 36,950 173 418 0
2020-10-21 03:03:52 GMT 33.143646 -82.792801 36,950 173 418 0
2020-10-21 03:03:41 GMT 33.165585 -82.795830 36,950 173 418 0
2020-10-21 03:03:31 GMT 33.185028 -82.798515 36,950 173 418 0
2020-10-21 03:03:18 GMT 33.207573 -82.801598 36,950 173 418 0
2020-10-21 03:03:10 GMT 33.225262 -82.804008 36,950 173 418 64
2020-10-21 03:02:59 GMT 33.247421 -82.807083 36,950 173 418 64
2020-10-21 03:02:53 GMT 33.256851 -82.808403 36,950 173 418 64
2020-10-21 03:02:49 GMT 33.269722 -82.810181 36,950 173 418 64
2020-10-21 03:02:33 GMT 33.296116 -82.813820 36,950 173 418 0
2020-10-21 03:02:28 GMT 33.306885 -82.815323 36,950 173 418 -64
2020-10-21 03:02:25 GMT 33.310913 -82.815872 36,950 173 418 -64
2020-10-21 03:02:22 GMT 33.316132 -82.816589 36,950 173 418 -64
2020-10-21 03:02:15 GMT 33.331146 -82.818680 36,950 173 418 0
2020-10-21 03:02:12 GMT 33.334625 -82.819168 36,950 173 418 0
2020-10-21 03:02:06 GMT 33.348675 -82.821106 36,950 173 418 -64
2020-10-21 03:02:02 GMT 33.354446 -82.821915 36,950 173 418 -64
2020-10-21 03:01:54 GMT 33.372181 -82.824356 36,975 173 419 -64
2020-10-21 03:01:51 GMT 33.375092 -82.824776 36,975 173 419 -64
2020-10-21 03:01:47 GMT 33.383743 -82.825981 36,975 173 419 -64
2020-10-21 03:01:42 GMT 33.394958 -82.827522 36,975 173 419 -64
2020-10-21 03:01:31 GMT 33.415054 -82.830322 37,000 173 420 -64
2020-10-21 03:01:24 GMT 33.427628 -82.832039 37,000 173 420 -64
2020-10-21 03:01:20 GMT 33.436333 -82.833267 37,000 173 420 -64
2020-10-21 03:01:14 GMT 33.447178 -82.834724 37,000 173 420 -64
2020-10-21 03:01:10 GMT 33.455704 -82.835922 37,000 173 421 0
2020-10-21 03:01:00 GMT 33.476086 -82.838760 37,000 173 422 -64
2020-10-21 03:00:52 GMT 33.490051 -82.840729 37,025 173 422 0
2020-10-21 03:00:49 GMT 33.498058 -82.841789 37,025 173 422 0
2020-10-21 03:00:46 GMT 33.501938 -82.842354 37,025 173 422 0
2020-10-21 03:00:43 GMT 33.507385 -82.843124 37,025 173 423 0
2020-10-21 03:00:40 GMT 33.515190 -82.844200 37,025 173 423 64
2020-10-21 03:00:36 GMT 33.523361 -82.845322 37,025 173 423 64
2020-10-21 03:00:28 GMT 33.538193 -82.847351 37,000 173 424 64
2020-10-21 03:00:25 GMT 33.542843 -82.848015 37,000 173 424 64
2020-10-21 03:00:22 GMT 33.550476 -82.849045 37,000 173 424 64
2020-10-21 03:00:18 GMT 33.556343 -82.849846 37,000 173 425 0
2020-10-21 03:00:15 GMT 33.562592 -82.850761 37,000 173 425 0
2020-10-21 03:00:08 GMT 33.576736 -82.852669 37,000 173 425 0
2020-10-21 03:00:05 GMT 33.583763 -82.853683 37,000 173 425 0
2020-10-21 03:00:02 GMT 33.589069 -82.854424 37,000 173 425 64
2020-10-21 02:59:59 GMT 33.593353 -82.854996 37,000 173 425 64
2020-10-21 02:59:56 GMT 33.599869 -82.855911 37,000 173 426 64
2020-10-21 02:59:53 GMT 33.604340 -82.856483 37,000 173 426 64
2020-10-21 02:59:46 GMT 33.619656 -82.858604 36,975 173 426 64
2020-10-21 02:59:43 GMT 33.624207 -82.859222 36,975 173 427 64
2020-10-21 02:59:38 GMT 33.633617 -82.860542 36,975 173 427 0
2020-10-21 02:59:34 GMT 33.644653 -82.862038 36,975 173 427 0
2020-10-21 02:59:28 GMT 33.654289 -82.863403 36,975 173 428 0
2020-10-21 02:59:25 GMT 33.661011 -82.864326 36,975 173 428 0
2020-10-21 02:59:19 GMT 33.671219 -82.865723 36,975 173 428 0
2020-10-21 02:59:12 GMT 33.685226 -82.867683 36,975 173 428 0
2020-10-21 02:59:09 GMT 33.693111 -82.868790 36,975 173 427 0
2020-10-21 02:59:06 GMT 33.700974 -82.869873 36,975 173 427 0
2020-10-21 02:59:02 GMT 33.706696 -82.870712 36,975 173 427 0
2020-10-21 02:58:57 GMT 33.716537 -82.872063 36,975 173 428 0
2020-10-21 02:58:54 GMT 33.723221 -82.873009 36,975 173 427 0
2020-10-21 02:58:49 GMT 33.733887 -82.874527 36,975 173 427 64
2020-10-21 02:58:42 GMT 33.744690 -82.876038 36,975 173 427 0
2020-10-21 02:58:36 GMT 33.755722 -82.877609 36,975 173 427 0
2020-10-21 02:58:33 GMT 33.764805 -82.878860 36,975 173 428 0
2020-10-21 02:58:25 GMT 33.780350 -82.881027 36,975 173 427 0
2020-10-21 02:58:22 GMT 33.784286 -82.881592 36,975 173 427 0
2020-10-21 02:58:14 GMT 33.800789 -82.883888 36,975 173 427 64
2020-10-21 02:58:11 GMT 33.808273 -82.884895 36,975 173 427 64
2020-10-21 02:58:06 GMT 33.815964 -82.885963 36,950 173 427 0
2020-10-21 02:58:03 GMT 33.823040 -82.886925 36,950 173 427 64
2020-10-21 02:58:00 GMT 33.829929 -82.887840 36,950 173 427 0
2020-10-21 02:57:55 GMT 33.837799 -82.888931 36,950 173 427 0
2020-10-21 02:57:51 GMT 33.847248 -82.890244 36,975 173 428 -64
2020-10-21 02:57:48 GMT 33.851212 -82.890778 36,975 173 428 -64
2020-10-21 02:57:43 GMT 33.863617 -82.892464 36,975 173 427 -64
2020-10-21 02:57:39 GMT 33.869705 -82.893303 36,975 173 427 -64
2020-10-21 02:57:36 GMT 33.874603 -82.893974 36,975 173 426 0
2020-10-21 02:57:30 GMT 33.888584 -82.895905 36,975 173 426 0
2020-10-21 02:57:27 GMT 33.895428 -82.896881 36,975 173 426 0
2020-10-21 02:57:24 GMT 33.897583 -82.897171 36,975 173 426 0
2020-10-21 02:57:20 GMT 33.905437 -82.898254 36,975 173 426 -64
2020-10-21 02:57:16 GMT 33.913696 -82.899414 36,975 173 426 -64
2020-10-21 02:57:12 GMT 33.923920 -82.900887 37,000 173 426 -64
2020-10-21 02:57:08 GMT 33.929810 -82.901711 37,000 173 428 -128
2020-10-21 02:57:05 GMT 33.937279 -82.902779 37,000 173 427 -64
2020-10-21 02:57:00 GMT 33.944542 -82.903809 37,000 173 428 -64
2020-10-21 02:56:56 GMT 33.952423 -82.904907 37,000 173 428 -128
2020-10-21 02:56:51 GMT 33.962231 -82.906319 37,025 173 428 -128
2020-10-21 02:56:48 GMT 33.971283 -82.907654 37,025 173 428 -64
2020-10-21 02:56:45 GMT 33.976009 -82.908325 37,025 173 427 -64
2020-10-21 02:56:40 GMT 33.985229 -82.909637 37,025 173 428 0
2020-10-21 02:56:37 GMT 33.992908 -82.910728 37,025 173 427 64
2020-10-21 02:56:30 GMT 34.006485 -82.912643 37,025 173 427 0
2020-10-21 02:56:26 GMT 34.012573 -82.913483 37,025 173 428 0
2020-10-21 02:56:22 GMT 34.026985 -82.915535 37,025 173 428 0
2020-10-21 02:56:19 GMT 34.026985 -82.915535 37,025 173 428 0
2020-10-21 02:56:16 GMT 34.033676 -82.916451 37,000 173 428 64
2020-10-21 02:56:12 GMT 34.041138 -82.917542 37,025 173 428 64
2020-10-21 02:56:09 GMT 34.047283 -82.918396 37,000 173 428 64
2020-10-21 02:56:04 GMT 34.054733 -82.919426 37,000 173 428 64
2020-10-21 02:56:01 GMT 34.061050 -82.920319 37,000 173 428 64
2020-10-21 02:55:58 GMT 34.067551 -82.921219 37,000 173 428 128
2020-10-21 02:55:54 GMT 34.078381 -82.922745 36,975 173 428 128
2020-10-21 02:55:51 GMT 34.081329 -82.923180 36,975 173 428 128
2020-10-21 02:55:47 GMT 34.088436 -82.924171 36,975 173 428 64
2020-10-21 02:55:44 GMT 34.095520 -82.925194 36,975 173 428 64
2020-10-21 02:55:41 GMT 34.100677 -82.925896 36,975 173 428 0
2020-10-21 02:55:38 GMT 34.109344 -82.927101 36,975 173 428 0
2020-10-21 02:55:34 GMT 34.116039 -82.928062 36,975 173 427 0
2020-10-21 02:55:29 GMT 34.124268 -82.929230 36,975 173 427 64
2020-10-21 02:55:25 GMT 34.133926 -82.930580 36,950 173 426 128
2020-10-21 02:55:21 GMT 34.142155 -82.931725 36,950 173 426 128
2020-10-21 02:55:17 GMT 34.149216 -82.932709 36,925 173 426 64
2020-10-21 02:55:13 GMT 34.157425 -82.933846 36,925 173 426 64
2020-10-21 02:55:09 GMT 34.163151 -82.934647 36,925 173 426 64
2020-10-21 02:55:03 GMT 34.176636 -82.936577 36,925 173 425 0
2020-10-21 02:55:00 GMT 34.183502 -82.937531 36,925 173 425 0
2020-10-21 02:54:56 GMT 34.195831 -82.939278 36,925 173 425 0
2020-10-21 02:54:52 GMT 34.198792 -82.939659 36,925 173 424 0
2020-10-21 02:54:49 GMT 34.203278 -82.940331 36,925 173 424 0
2020-10-21 02:54:44 GMT 34.219479 -82.942596 36,925 173 424 0
2020-10-21 02:54:38 GMT 34.224747 -82.943359 36,925 173 424 0
2020-10-21 02:54:31 GMT 34.239944 -82.945488 36,925 173 423 0
2020-10-21 02:54:28 GMT 34.244064 -82.946053 36,925 173 423 0
2020-10-21 02:54:21 GMT 34.258259 -82.948090 36,925 173 423 0
2020-10-21 02:54:18 GMT 34.264481 -82.948959 36,925 173 422 -64
2020-10-21 02:54:10 GMT 34.278694 -82.950951 36,975 173 422 0
2020-10-21 02:54:07 GMT 34.286087 -82.951988 36,950 173 422 0
2020-10-21 02:54:00 GMT 34.300293 -82.953987 36,950 173 422 0
2020-10-21 02:53:57 GMT 34.305359 -82.954735 36,950 173 422 0
2020-10-21 02:53:51 GMT 34.317993 -82.956528 36,950 173 422 -64
2020-10-21 02:53:48 GMT 34.322266 -82.957130 36,950 173 422 -64
2020-10-21 02:53:38 GMT 34.343075 -82.960052 36,950 173 422 -64
2020-10-21 02:53:35 GMT 34.347931 -82.960732 36,975 173 423 -64
2020-10-21 02:53:29 GMT 34.359413 -82.962341 36,975 173 422 -64
2020-10-21 02:53:26 GMT 34.365421 -82.963203 36,975 173 422 -64
2020-10-21 02:53:17 GMT 34.382973 -82.965660 36,975 173 422 0
2020-10-21 02:53:14 GMT 34.388763 -82.966454 36,975 173 422 0
2020-10-21 02:53:08 GMT 34.402199 -82.968346 36,975 173 423 -64
2020-10-21 02:53:05 GMT 34.405735 -82.968864 36,975 173 423 -64
2020-10-21 02:53:02 GMT 34.410782 -82.969589 36,975 173 423 -64
2020-10-21 02:52:55 GMT 34.426170 -82.971786 37,000 173 423 -64
2020-10-21 02:52:50 GMT 34.433945 -82.972839 37,000 173 423 0
2020-10-21 02:52:46 GMT 34.444473 -82.974358 37,000 173 423 -64
2020-10-21 02:52:42 GMT 34.451340 -82.975365 37,000 173 424 -64
2020-10-21 02:52:33 GMT 34.469463 -82.977959 37,000 173 424 0
2020-10-21 02:52:25 GMT 34.485897 -82.980309 37,000 173 426 0
2020-10-21 02:52:21 GMT 34.491760 -82.981140 37,000 173 425 0
2020-10-21 02:52:15 GMT 34.504288 -82.982941 37,000 173 425 0
2020-10-21 02:52:11 GMT 34.511921 -82.984032 37,000 173 426 0
2020-10-21 02:52:03 GMT 34.528976 -82.986465 37,000 173 426 -64
2020-10-21 02:52:00 GMT 34.532684 -82.987022 37,000 173 426 -64
2020-10-21 02:51:52 GMT 34.553539 -82.989983 37,000 173 426 0
2020-10-21 02:51:45 GMT 34.562164 -82.991226 37,000 173 426 0
2020-10-21 02:51:42 GMT 34.569031 -82.992180 37,000 173 426 0
2020-10-21 02:51:39 GMT 34.573555 -82.992844 37,000 173 430 0
2020-10-21 02:51:33 GMT 34.585751 -82.994553 37,000 173 427 0
2020-10-21 02:51:29 GMT 34.593807 -82.995705 37,000 173 427 0
2020-10-21 02:51:22 GMT 34.606201 -82.997452 37,025 173 428 64
2020-10-21 02:51:19 GMT 34.613312 -82.998444 37,025 173 428 0
2020-10-21 02:51:12 GMT 34.626892 -83.000366 37,000 173 428 64
2020-10-21 02:51:09 GMT 34.636356 -83.001709 37,000 173 428 64
2020-10-21 02:51:01 GMT 34.647583 -83.003334 37,000 173 431 0
2020-10-21 02:50:58 GMT 34.664154 -83.005692 37,000 173 430 0
2020-10-21 02:50:53 GMT 34.664154 -83.005692 37,000 173 429 0
2020-10-21 02:50:50 GMT 34.672623 -83.006866 37,000 173 430 0
2020-10-21 02:50:46 GMT 34.679371 -83.007835 37,000 173 430 64
2020-10-21 02:50:42 GMT 34.686264 -83.008827 37,000 173 430 64
2020-10-21 02:50:39 GMT 34.694172 -83.010010 37,000 173 430 64
2020-10-21 02:50:30 GMT 34.710979 -83.012405 37,000 173 431 0
2020-10-21 02:50:21 GMT 34.729797 -83.015160 37,000 173 431 0
2020-10-21 02:50:18 GMT 34.734951 -83.015900 37,000 173 431 0
2020-10-21 02:50:10 GMT 34.749569 -83.017960 36,975 173 429 64
2020-10-21 02:50:07 GMT 34.755295 -83.018822 36,975 173 429 64
2020-10-21 02:50:03 GMT 34.764187 -83.020020 36,975 173 429 64
2020-10-21 02:50:00 GMT 34.770905 -83.020988 36,975 173 429 64
2020-10-21 02:49:57 GMT 34.775452 -83.021622 36,975 173 429 64
2020-10-21 02:49:52 GMT 34.786285 -83.023178 36,950 173 426 0
2020-10-21 02:49:47 GMT 34.795990 -83.024574 36,950 173 429 0
2020-10-21 02:49:39 GMT 34.811600 -83.026764 36,950 173 428 0
2020-10-21 02:49:36 GMT 34.816513 -83.027458 36,950 173 428 0
2020-10-21 02:49:29 GMT 34.831921 -83.029633 36,950 173 428 0
2020-10-21 02:49:25 GMT 34.837418 -83.030464 36,975 173 428 0
2020-10-21 02:49:18 GMT 34.852386 -83.032593 36,950 173 427 64
2020-10-21 02:49:14 GMT 34.860641 -83.033752 36,950 173 427 0
2020-10-21 02:49:11 GMT 34.864975 -83.034386 36,950 173 427 0
2020-10-21 02:49:08 GMT 34.872665 -83.035507 36,950 173 426 0
2020-10-21 02:49:05 GMT 34.877960 -83.036270 36,950 173 426 0
2020-10-21 02:49:02 GMT 34.885643 -83.037354 36,950 173 427 0
2020-10-21 02:48:58 GMT 34.893906 -83.038536 36,950 173 427 0
2020-10-21 02:48:54 GMT 34.899422 -83.039307 36,950 173 426 0
2020-10-21 02:48:51 GMT 34.906082 -83.040276 36,950 173 426 0
2020-10-21 02:48:45 GMT 34.918274 -83.041992 36,950 173 426 0
2020-10-21 02:48:40 GMT 34.927074 -83.043251 36,950 173 426 0
2020-10-21 02:48:37 GMT 34.942383 -83.045486 36,950 173 425 0
2020-10-21 02:48:33 GMT 34.942383 -83.045486 36,950 173 425 0
2020-10-21 02:48:29 GMT 34.947464 -83.046211 36,950 173 425 0
2020-10-21 02:48:26 GMT 34.954540 -83.047195 36,950 173 425 0
2020-10-21 02:48:22 GMT 34.962753 -83.048401 36,950 173 425 -64
2020-10-21 02:48:13 GMT 34.979965 -83.050865 36,950 173 425 0
2020-10-21 02:48:04 GMT 34.998184 -83.053505 36,950 173 425 0
2020-10-21 02:48:00 GMT 35.004257 -83.054352 36,950 173 425 0
2020-10-21 02:47:53 GMT 35.020523 -83.056694 36,950 173 425 64
2020-10-21 02:47:42 GMT 35.040474 -83.059563 36,950 173 425 0
2020-10-21 02:47:39 GMT 35.048107 -83.060646 36,950 173 425 0
2020-10-21 02:47:34 GMT 35.055954 -83.061798 36,950 173 426 -64
2020-10-21 02:47:31 GMT 35.064217 -83.062988 36,950 173 426 -64
2020-10-21 02:47:27 GMT 35.071243 -83.063988 36,950 173 425 -64
2020-10-21 02:47:22 GMT 35.081440 -83.065453 36,950 173 425 0
2020-10-21 02:47:18 GMT 35.089493 -83.066650 36,950 173 425 64
2020-10-21 02:47:14 GMT 35.096710 -83.067680 36,950 173 425 64
2020-10-21 02:47:09 GMT 35.104343 -83.068771 36,950 173 425 64
2020-10-21 02:47:03 GMT 35.116867 -83.070602 36,950 173 425 0
2020-10-21 02:46:58 GMT 35.126266 -83.071999 36,950 173 426 -64
2020-10-21 02:46:52 GMT 35.139999 -83.073959 36,950 173 426 -64
2020-10-21 02:46:49 GMT 35.144707 -83.074661 36,950 173 426 0
2020-10-21 02:46:43 GMT 35.157646 -83.076492 36,950 173 425 0
2020-10-21 02:46:38 GMT 35.166073 -83.077698 36,950 173 425 0
2020-10-21 02:46:32 GMT 35.177811 -83.079399 36,950 173 426 0
2020-10-21 02:46:27 GMT 35.191349 -83.081360 36,950 173 426 -64
2020-10-21 02:46:22 GMT 35.198238 -83.082336 36,950 173 426 -64
2020-10-21 02:46:15 GMT 35.212765 -83.084450 36,975 173 427 -64
2020-10-21 02:46:11 GMT 35.218864 -83.085304 36,975 173 428 -64
2020-10-21 02:46:08 GMT 35.226917 -83.086510 36,975 173 428 -64
2020-10-21 02:46:04 GMT 35.233013 -83.087379 36,975 173 428 -64
2020-10-21 02:46:00 GMT 35.239471 -83.088341 36,975 173 428 -64
2020-10-21 02:45:57 GMT 35.246979 -83.089371 36,975 173 428 -64
2020-10-21 02:45:54 GMT 35.253662 -83.090340 36,975 173 428 -64
2020-10-21 02:45:51 GMT 35.259750 -83.091255 36,975 173 428 0
2020-10-21 02:45:47 GMT 35.267605 -83.092407 36,975 173 428 0
2020-10-21 02:45:43 GMT 35.275284 -83.093513 37,000 173 428 0
2020-10-21 02:45:40 GMT 35.280640 -83.094276 37,000 173 428 0
2020-10-21 02:45:35 GMT 35.288692 -83.095444 37,000 173 428 0
2020-10-21 02:45:32 GMT 35.295395 -83.096375 37,000 173 428 0
2020-10-21 02:45:29 GMT 35.303284 -83.097549 37,000 173 429 0
2020-10-21 02:45:26 GMT 35.309006 -83.098351 37,000 173 429 0
2020-10-21 02:45:18 GMT 35.322464 -83.100304 37,000 173 430 -64
2020-10-21 02:45:15 GMT 35.329422 -83.101273 37,000 173 431 -64
2020-10-21 02:45:12 GMT 35.336334 -83.102303 37,000 173 431 -64
2020-10-21 02:45:09 GMT 35.341900 -83.103096 37,000 173 432 0
2020-10-21 02:45:05 GMT 35.350838 -83.104385 37,000 173 432 0
2020-10-21 02:45:02 GMT 35.356750 -83.105263 37,000 173 432 0
2020-10-21 02:44:58 GMT 35.362942 -83.106140 37,000 173 432 0
2020-10-21 02:44:54 GMT 35.370857 -83.107307 37,000 173 432 0
2020-10-21 02:44:51 GMT 35.377213 -83.108253 37,000 173 432 -64
2020-10-21 02:44:48 GMT 35.382587 -83.109001 37,000 173 433 -64
2020-10-21 02:44:43 GMT 35.394505 -83.110756 37,000 173 433 -64
2020-10-21 02:44:40 GMT 35.401291 -83.111748 37,000 173 433 -64
2020-10-21 02:44:36 GMT 35.408249 -83.112778 37,025 173 433 0
2020-10-21 02:44:31 GMT 35.415825 -83.113853 37,000 173 433 0
2020-10-21 02:44:28 GMT 35.422810 -83.114845 37,000 173 433 64
2020-10-21 02:44:25 GMT 35.428951 -83.115784 37,000 173 433 64
2020-10-21 02:44:22 GMT 35.436127 -83.116776 37,000 173 434 64
2020-10-21 02:44:19 GMT 35.442307 -83.117699 37,000 173 434 64
2020-10-21 02:44:12 GMT 35.454895 -83.119530 37,000 173 435 64
2020-10-21 02:44:07 GMT 35.465916 -83.121101 36,975 173 435 0
2020-10-21 02:44:00 GMT 35.478516 -83.122955 37,000 173 436 0
2020-10-21 02:43:55 GMT 35.489330 -83.124542 37,000 173 436 0
2020-10-21 02:43:50 GMT 35.498318 -83.125832 36,975 173 435 64
2020-10-21 02:43:45 GMT 35.507538 -83.127190 36,975 173 436 64
2020-10-21 02:43:42 GMT 35.513763 -83.128113 36,975 173 436 64
2020-10-21 02:43:39 GMT 35.519348 -83.128906 36,975 173 436 64
2020-10-21 02:43:34 GMT 35.532623 -83.130859 36,975 173 436 64
2020-10-21 02:43:31 GMT 35.535599 -83.131310 36,975 173 437 0
2020-10-21 02:43:28 GMT 35.542419 -83.132286 36,975 173 437 -64
2020-10-21 02:43:25 GMT 35.549477 -83.133308 36,975 173 437 -64
2020-10-21 02:43:22 GMT 35.556885 -83.134399 36,975 173 437 -64
2020-10-21 02:43:18 GMT 35.562138 -83.135178 36,975 173 437 0
2020-10-21 02:43:15 GMT 35.569962 -83.136353 36,975 173 437 0
2020-10-21 02:43:09 GMT 35.582199 -83.138123 36,975 173 437 64
2020-10-21 02:43:04 GMT 35.591419 -83.139503 36,975 173 436 64
2020-10-21 02:43:01 GMT 35.598450 -83.140526 36,975 173 437 64
2020-10-21 02:42:57 GMT 35.604454 -83.141373 36,950 173 437 64
2020-10-21 02:42:52 GMT 35.614277 -83.142838 36,950 173 437 64
2020-10-21 02:42:47 GMT 35.624332 -83.144295 36,950 173 437 0
2020-10-21 02:42:44 GMT 35.632992 -83.145584 36,950 173 437 0
2020-10-21 02:42:38 GMT 35.644638 -83.147278 36,950 173 437 0
2020-10-21 02:42:32 GMT 35.653893 -83.148682 36,950 173 437 0
2020-10-21 02:42:29 GMT 35.660923 -83.149673 36,950 173 437 0
2020-10-21 02:42:26 GMT 35.666153 -83.150429 36,950 173 437 0
2020-10-21 02:42:22 GMT 35.676983 -83.152008 36,950 173 436 0
2020-10-21 02:42:18 GMT 35.688034 -83.153625 36,950 173 436 0
2020-10-21 02:42:15 GMT 35.688034 -83.153625 36,950 173 437 0
2020-10-21 02:42:11 GMT 35.697464 -83.155006 36,950 173 437 0
2020-10-21 02:42:05 GMT 35.707893 -83.156509 36,950 173 437 0
2020-10-21 02:42:00 GMT 35.719711 -83.158264 36,950 173 437 0
2020-10-21 02:41:56 GMT 35.729141 -83.159637 36,950 173 437 0
2020-10-21 02:41:52 GMT 35.736755 -83.160721 36,950 173 437 0
2020-10-21 02:41:48 GMT 35.744385 -83.161812 36,950 173 435 0
2020-10-21 02:41:45 GMT 35.749420 -83.162590 36,950 173 436 0
2020-10-21 02:41:42 GMT 35.755417 -83.163467 36,950 173 436 -64
2020-10-21 02:41:39 GMT 35.760452 -83.164162 36,975 173 436 0
2020-10-21 02:41:35 GMT 35.770878 -83.165688 36,950 173 436 0
2020-10-21 02:41:28 GMT 35.782700 -83.167419 36,950 173 436 0
2020-10-21 02:41:24 GMT 35.792339 -83.168839 36,950 173 436 64
2020-10-21 02:41:21 GMT 35.799324 -83.169891 36,950 173 436 64
2020-10-21 02:41:18 GMT 35.802338 -83.170341 36,950 173 436 64
2020-10-21 02:41:14 GMT 35.813141 -83.171883 36,950 173 436 0
2020-10-21 02:41:09 GMT 35.823395 -83.173370 36,950 173 436 0
2020-10-21 02:41:04 GMT 35.830605 -83.174454 36,950 173 437 0
2020-10-21 02:41:00 GMT 35.838844 -83.175682 36,975 173 437 0
2020-10-21 02:40:57 GMT 35.845036 -83.176552 36,950 173 437 0
2020-10-21 02:40:53 GMT 35.856308 -83.178230 36,950 173 437 0
2020-10-21 02:40:48 GMT 35.865101 -83.179474 36,950 173 437 0
2020-10-21 02:40:44 GMT 35.872547 -83.180588 36,975 173 437 -64
2020-10-21 02:40:40 GMT 35.882000 -83.181992 36,975 173 437 -64
2020-10-21 02:40:36 GMT 35.889030 -83.183044 36,975 173 437 -64
2020-10-21 02:40:32 GMT 35.897049 -83.184181 36,975 173 437 -64
2020-10-21 02:40:27 GMT 35.907120 -83.185730 36,975 173 438 -64
2020-10-21 02:40:23 GMT 35.914764 -83.186874 36,975 173 438 -128
2020-10-21 02:40:19 GMT 35.923618 -83.188187 36,975 173 438 -128
2020-10-21 02:40:16 GMT 35.928040 -83.188820 36,975 173 438 -128
2020-10-21 02:40:08 GMT 35.944153 -83.191223 37,025 173 439 -64
2020-10-21 02:40:05 GMT 35.949600 -83.192024 37,000 173 439 -64
2020-10-21 02:40:01 GMT 35.958065 -83.193268 37,025 173 439 -64
2020-10-21 02:39:58 GMT 35.966351 -83.194496 37,000 173 439 -64
2020-10-21 02:39:55 GMT 35.970566 -83.195114 37,025 173 439 -64
2020-10-21 02:39:51 GMT 35.979668 -83.196426 37,025 173 439 -64
2020-10-21 02:39:48 GMT 35.986740 -83.197479 37,025 173 439 0
2020-10-21 02:39:44 GMT 35.991352 -83.198120 37,025 173 439 0
2020-10-21 02:39:39 GMT 36.012390 -83.201218 37,025 173 440 0
2020-10-21 02:39:35 GMT 36.012390 -83.201218 37,025 173 440 0
2020-10-21 02:39:30 GMT 36.021469 -83.202553 37,025 173 440 -64
2020-10-21 02:39:27 GMT 36.028976 -83.203697 37,025 173 440 -64
2020-10-21 02:39:23 GMT 36.034039 -83.204430 37,025 173 441 -64
2020-10-21 02:39:18 GMT 36.046188 -83.206215 37,050 173 441 -64
2020-10-21 02:39:14 GMT 36.054657 -83.207474 37,050 173 441 0
2020-10-21 02:39:11 GMT 36.059319 -83.208168 37,050 173 441 0
2020-10-21 02:39:08 GMT 36.066811 -83.209282 37,050 173 441 64
2020-10-21 02:39:05 GMT 36.071095 -83.209923 37,050 173 441 64
2020-10-21 02:39:01 GMT 36.080841 -83.211311 37,025 173 442 64
2020-10-21 02:38:56 GMT 36.089764 -83.212669 37,025 173 442 64
2020-10-21 02:38:52 GMT 36.102951 -83.214569 37,025 173 443 0
2020-10-21 02:38:49 GMT 36.112339 -83.215942 37,025 173 443 0
2020-10-21 02:38:45 GMT 36.112339 -83.215942 37,025 173 443 0
2020-10-21 02:38:41 GMT 36.119041 -83.216934 37,025 173 443 -64
2020-10-21 02:38:37 GMT 36.133942 -83.219147 37,025 173 443 -64
2020-10-21 02:38:30 GMT 36.144104 -83.220695 37,025 173 443 0
2020-10-21 02:38:27 GMT 36.149826 -83.221497 37,025 173 443 0
2020-10-21 02:38:24 GMT 36.153671 -83.222069 37,025 173 443 0
2020-10-21 02:38:21 GMT 36.161034 -83.223190 37,025 173 443 0
2020-10-21 02:38:14 GMT 36.174271 -83.225159 37,025 173 443 64
2020-10-21 02:38:10 GMT 36.182587 -83.226402 37,025 173 443 64
2020-10-21 02:38:07 GMT 36.189514 -83.227448 37,025 173 443 0
2020-10-21 02:38:02 GMT 36.201160 -83.229210 37,025 173 443 64
2020-10-21 02:37:59 GMT 36.207260 -83.230087 37,025 173 443 0
2020-10-21 02:37:54 GMT 36.215607 -83.231339 37,025 173 443 0
2020-10-21 02:37:48 GMT 36.228676 -83.233299 37,025 173 443 0
2020-10-21 02:37:44 GMT 36.237614 -83.234581 37,025 173 443 0
2020-10-21 02:37:41 GMT 36.242500 -83.235283 37,025 173 443 64
2020-10-21 02:37:37 GMT 36.250042 -83.236397 37,025 173 443 64
2020-10-21 02:37:34 GMT 36.256531 -83.237343 37,000 173 443 64
2020-10-21 02:37:31 GMT 36.264286 -83.238503 37,000 173 443 64
2020-10-21 02:37:28 GMT 36.270573 -83.239433 37,000 173 443 64
2020-10-21 02:37:20 GMT 36.284817 -83.241539 37,000 173 443 64
2020-10-21 02:37:17 GMT 36.291321 -83.242493 37,000 173 443 0
2020-10-21 02:37:14 GMT 36.299061 -83.243645 37,000 173 443 0
2020-10-21 02:37:09 GMT 36.306381 -83.244720 37,000 173 442 0
2020-10-21 02:37:06 GMT 36.312885 -83.245689 37,000 173 442 0
2020-10-21 02:37:00 GMT 36.327316 -83.247849 37,000 173 442 0
2020-10-21 02:36:57 GMT 36.334625 -83.248962 37,000 173 442 0
2020-10-21 02:36:52 GMT 36.343369 -83.250214 37,000 173 441 0
2020-10-21 02:36:46 GMT 36.354317 -83.251884 37,000 173 441 0
2020-10-21 02:36:41 GMT 36.369919 -83.254166 37,000 173 440 0
2020-10-21 02:36:38 GMT 36.369919 -83.254166 37,000 173 441 0
2020-10-21 02:36:35 GMT 36.375965 -83.255096 37,000 173 441 0
2020-10-21 02:36:29 GMT 36.389969 -83.257141 37,000 173 440 0
2020-10-21 02:36:25 GMT 36.398449 -83.258430 37,000 173 440 0
2020-10-21 02:36:21 GMT 36.405350 -83.259430 37,000 173 440 0
2020-10-21 02:36:18 GMT 36.411812 -83.260414 37,000 173 440 0
2020-10-21 02:36:14 GMT 36.418488 -83.261375 37,000 173 440 0
2020-10-21 02:36:11 GMT 36.425358 -83.262398 37,000 173 440 0
2020-10-21 02:36:08 GMT 36.432854 -83.263512 37,000 173 440 0
2020-10-21 02:36:04 GMT 36.438492 -83.264351 37,000 173 440 0
2020-10-21 02:36:00 GMT 36.448586 -83.265846 37,000 173 440 0
2020-10-21 02:35:54 GMT 36.460503 -83.267662 37,000 173 439 0
2020-10-21 02:35:49 GMT 36.468567 -83.268814 37,000 173 439 0
2020-10-21 02:35:46 GMT 36.474838 -83.269791 37,000 173 439 0
2020-10-21 02:35:43 GMT 36.481888 -83.270821 37,000 173 439 0
2020-10-21 02:35:40 GMT 36.488949 -83.271866 37,000 173 438 0
2020-10-21 02:35:37 GMT 36.494766 -83.272743 37,000 173 438 0
2020-10-21 02:35:33 GMT 36.500633 -83.273621 37,000 173 438 0
2020-10-21 02:35:28 GMT 36.510876 -83.275139 37,000 173 438 0
2020-10-21 02:35:25 GMT 36.516907 -83.276077 37,000 173 438 0
2020-10-21 02:35:18 GMT 36.531006 -83.278198 37,000 173 437 0
2020-10-21 02:35:13 GMT 36.542038 -83.279800 37,000 173 437 0
2020-10-21 02:35:06 GMT 36.557938 -83.282211 37,000 173 437 0
2020-10-21 02:34:57 GMT 36.573578 -83.284492 37,000 173 437 0
2020-10-21 02:34:52 GMT 36.584198 -83.286095 37,000 173 436 0
2020-10-21 02:34:47 GMT 36.595230 -83.287750 37,000 173 436 0
2020-10-21 02:34:42 GMT 36.604443 -83.289108 37,000 173 436 64
2020-10-21 02:34:34 GMT 36.621094 -83.291588 37,000 173 436 0
2020-10-21 02:34:31 GMT 36.625671 -83.292274 37,000 173 436 0
2020-10-21 02:34:26 GMT 36.637115 -83.293991 37,000 173 436 -64
2020-10-21 02:34:21 GMT 36.647133 -83.295532 37,000 173 436 -64
2020-10-21 02:34:16 GMT 36.657143 -83.296997 37,000 173 435 0
2020-10-21 02:34:10 GMT 36.668335 -83.298683 37,000 173 435 0
2020-10-21 02:34:03 GMT 36.682930 -83.300850 37,000 173 435 -64
2020-10-21 02:33:57 GMT 36.694931 -83.302689 37,000 173 435 -64
2020-10-21 02:33:50 GMT 36.708721 -83.304710 37,000 173 435 0
2020-10-21 02:33:44 GMT 36.730274 -83.307983 37,000 172 434 0
2020-10-21 02:33:39 GMT 36.730274 -83.307983 37,000 173 435 0
2020-10-21 02:33:34 GMT 36.741867 -83.309792 37,000 172 434 0
2020-10-21 02:33:29 GMT 36.752655 -83.311386 37,000 172 434 0
2020-10-21 02:33:23 GMT 36.761417 -83.312714 37,000 173 435 64
2020-10-21 02:33:19 GMT 36.770828 -83.314194 37,000 173 435 0
2020-10-21 02:33:14 GMT 36.781994 -83.315872 37,000 173 435 64
2020-10-21 02:33:11 GMT 36.785980 -83.316483 37,000 173 435 64
2020-10-21 02:33:08 GMT 36.792984 -83.317513 37,000 173 435 64
2020-10-21 02:33:02 GMT 36.811928 -83.320374 37,000 173 435 0
2020-10-21 02:32:59 GMT 36.811928 -83.320374 37,000 173 435 0
2020-10-21 02:32:51 GMT 36.827103 -83.322708 37,000 172 434 0
2020-10-21 02:32:47 GMT 36.834087 -83.323761 37,000 172 434 0
2020-10-21 02:32:39 GMT 36.849472 -83.326096 36,975 173 434 0
2020-10-21 02:32:36 GMT 36.855034 -83.326942 36,975 173 434 0
2020-10-21 02:32:30 GMT 36.867828 -83.328842 36,975 173 434 0
2020-10-21 02:32:26 GMT 36.876774 -83.330162 36,975 173 434 0
2020-10-21 02:32:20 GMT 36.889343 -83.332077 36,975 173 434 0
2020-10-21 02:32:16 GMT 36.895340 -83.332993 36,975 173 434 0
2020-10-21 02:32:06 GMT 36.915482 -83.335976 36,975 173 434 0
2020-10-21 02:32:00 GMT 36.929981 -83.338165 36,975 173 433 0
2020-10-21 02:31:56 GMT 36.935760 -83.339012 36,975 173 433 0
2020-10-21 02:31:48 GMT 36.950912 -83.341347 36,975 173 433 0
2020-10-21 02:31:45 GMT 36.956680 -83.342224 36,975 173 433 64
2020-10-21 02:31:40 GMT 36.969406 -83.344154 36,975 172 433 0
2020-10-21 02:31:35 GMT 36.976364 -83.345207 36,975 172 433 0
2020-10-21 02:31:28 GMT 36.990097 -83.347313 36,975 173 433 0
2020-10-21 02:31:25 GMT 36.997055 -83.348366 36,975 172 433 -64
2020-10-21 02:31:18 GMT 37.011795 -83.350586 36,975 173 433 -64
2020-10-21 02:31:15 GMT 37.017563 -83.351463 36,975 173 433 -64
2020-10-21 02:31:05 GMT 37.039242 -83.354767 36,975 173 433 0
2020-10-21 02:30:54 GMT 37.059723 -83.357826 36,975 173 433 -64
2020-10-21 02:30:48 GMT 37.073044 -83.359879 37,000 173 433 -64
2020-10-21 02:30:43 GMT 37.080002 -83.360924 37,000 173 433 -64
2020-10-21 02:30:37 GMT 37.093334 -83.362946 37,000 173 433 -64
2020-10-21 02:30:34 GMT 37.101528 -83.364197 37,000 173 433 0
2020-10-21 02:30:24 GMT 37.120422 -83.367004 37,000 173 434 0
2020-10-21 02:30:20 GMT 37.125595 -83.367783 37,000 173 434 0
2020-10-21 02:30:16 GMT 37.134384 -83.369110 37,000 173 435 0
2020-10-21 02:30:12 GMT 37.142532 -83.370392 37,000 173 434 0
2020-10-21 02:30:02 GMT 37.163269 -83.373489 37,000 173 434 64
2020-10-21 02:29:51 GMT 37.184067 -83.376678 37,000 173 435 0
2020-10-21 02:29:44 GMT 37.197845 -83.378769 37,000 173 436 0
2020-10-21 02:29:40 GMT 37.209064 -83.380501 37,000 173 436 0
2020-10-21 02:29:32 GMT 37.224285 -83.382767 37,000 173 437 0
2020-10-21 02:29:28 GMT 37.231316 -83.383842 37,000 173 437 0
2020-10-21 02:29:21 GMT 37.244568 -83.385880 37,000 173 437 0
2020-10-21 02:29:18 GMT 37.249798 -83.386650 37,000 173 437 0
2020-10-21 02:29:08 GMT 37.270111 -83.389740 37,000 173 438 0
2020-10-21 02:29:01 GMT 37.286591 -83.392311 37,000 173 438 0
2020-10-21 02:28:57 GMT 37.292038 -83.393127 37,000 172 438 0
2020-10-21 02:28:47 GMT 37.313389 -83.396378 37,000 172 439 -64
2020-10-21 02:28:37 GMT 37.332962 -83.399437 37,025 172 440 -64
2020-10-21 02:28:30 GMT 37.348755 -83.401833 37,025 172 440 -128
2020-10-21 02:28:26 GMT 37.354614 -83.402771 37,025 173 440 -128
2020-10-21 02:28:19 GMT 37.370182 -83.405159 37,050 173 441 -64
2020-10-21 02:28:15 GMT 37.377090 -83.406158 37,050 173 441 -64
2020-10-21 02:28:06 GMT 37.396133 -83.409081 37,050 173 441 0
2020-10-21 02:27:58 GMT 37.412964 -83.411667 37,050 172 442 0
2020-10-21 02:27:55 GMT 37.418407 -83.412498 37,050 172 442 0
2020-10-21 02:27:45 GMT 37.439758 -83.415741 37,050 173 443 0
2020-10-21 02:27:37 GMT 37.453835 -83.417877 37,050 173 444 0
2020-10-21 02:27:34 GMT 37.461182 -83.419014 37,050 173 444 0
2020-10-21 02:27:25 GMT 37.479538 -83.421875 37,050 173 445 64
2020-10-21 02:27:18 GMT 37.495056 -83.424271 37,025 172 445 64
2020-10-21 02:27:14 GMT 37.503693 -83.425575 37,025 172 446 64
2020-10-21 02:27:07 GMT 37.518631 -83.427895 37,025 172 446 0
2020-10-21 02:27:04 GMT 37.524170 -83.428772 37,025 172 446 0
2020-10-21 02:26:59 GMT 37.534416 -83.430351 37,025 173 446 64
2020-10-21 02:26:52 GMT 37.545918 -83.432144 37,025 173 446 64
2020-10-21 02:26:43 GMT 37.566605 -83.435318 37,000 173 446 64
2020-10-21 02:26:37 GMT 37.578690 -83.437164 37,000 173 446 64
2020-10-21 02:26:33 GMT 37.586697 -83.438354 37,000 173 446 64
2020-10-21 02:26:30 GMT 37.590794 -83.439011 37,000 173 446 64
2020-10-21 02:26:25 GMT 37.602081 -83.440697 37,000 173 446 64
2020-10-21 02:26:21 GMT 37.612301 -83.442299 37,000 173 446 64
2020-10-21 02:26:18 GMT 37.617840 -83.443130 37,000 173 445 64
2020-10-21 02:26:11 GMT 37.631107 -83.445160 37,000 173 445 64
2020-10-21 02:26:07 GMT 37.639954 -83.446480 36,975 173 445 64
2020-10-21 02:26:01 GMT 37.652985 -83.448509 36,975 173 445 64
2020-10-21 02:25:57 GMT 37.660156 -83.449577 36,975 173 444 0
2020-10-21 02:25:49 GMT 37.675049 -83.451859 36,975 173 444 0
2020-10-21 02:25:45 GMT 37.683617 -83.453163 36,975 173 444 64
2020-10-21 02:25:40 GMT 37.696884 -83.455193 36,975 173 443 0
2020-10-21 02:25:37 GMT 37.702148 -83.456001 36,975 173 443 0
2020-10-21 02:25:34 GMT 37.709290 -83.457115 36,950 173 443 0
2020-10-21 02:25:29 GMT 37.717209 -83.458344 36,975 173 443 0
2020-10-21 02:25:26 GMT 37.722488 -83.459137 36,975 172 441 -64
2020-10-21 02:25:22 GMT 37.732033 -83.460625 36,975 172 442 -64
2020-10-21 02:25:19 GMT 37.739365 -83.461731 36,975 172 442 0
2020-10-21 02:25:15 GMT 37.743805 -83.462433 36,975 172 441 -64
2020-10-21 02:25:11 GMT 37.754791 -83.464127 36,975 172 441 -64
2020-10-21 02:25:08 GMT 37.760056 -83.464989 36,975 172 441 -64
2020-10-21 02:25:03 GMT 37.771774 -83.466759 36,975 172 440 0
2020-10-21 02:24:58 GMT 37.781097 -83.468208 36,975 172 440 -64
2020-10-21 02:24:55 GMT 37.785751 -83.468925 36,975 172 440 0
2020-10-21 02:24:49 GMT 37.797253 -83.470718 36,975 172 440 0
2020-10-21 02:24:45 GMT 37.805538 -83.472031 36,975 172 440 0
2020-10-21 02:24:38 GMT 37.819885 -83.474297 36,975 172 440 0
2020-10-21 02:24:35 GMT 37.825974 -83.475197 36,975 172 439 0
2020-10-21 02:24:28 GMT 37.839893 -83.477402 36,975 172 439 -64
2020-10-21 02:24:25 GMT 37.846756 -83.478447 37,000 172 439 -64
2020-10-21 02:24:19 GMT 37.858658 -83.480316 37,000 172 439 0
2020-10-21 02:24:15 GMT 37.867310 -83.481659 37,000 172 439 0
2020-10-21 02:24:07 GMT 37.884659 -83.484344 37,000 172 439 0
2020-10-21 02:24:03 GMT 37.890884 -83.485344 37,000 172 439 0
2020-10-21 02:23:57 GMT 37.901573 -83.487015 37,000 172 439 0
2020-10-21 02:23:54 GMT 37.909443 -83.488213 37,000 172 439 0
2020-10-21 02:23:47 GMT 37.924576 -83.490601 37,000 172 439 0
2020-10-21 02:23:44 GMT 37.929787 -83.491379 37,000 172 439 0
2020-10-21 02:23:36 GMT 37.946358 -83.494003 37,000 172 439 0
2020-10-21 02:23:33 GMT 37.950577 -83.494637 37,000 172 439 0
2020-10-21 02:23:25 GMT 37.967960 -83.497345 37,000 172 439 0
2020-10-21 02:23:22 GMT 37.973785 -83.498253 37,000 172 439 64
2020-10-21 02:23:16 GMT 37.985508 -83.500092 37,000 172 440 64
2020-10-21 02:23:13 GMT 37.992371 -83.501175 36,975 172 440 0
2020-10-21 02:23:07 GMT 38.004688 -83.503082 36,975 172 440 0
2020-10-21 02:23:02 GMT 38.014187 -83.504570 36,975 172 440 0
2020-10-21 02:22:56 GMT 38.025742 -83.506378 36,975 172 440 -64
2020-10-21 02:22:52 GMT 38.036671 -83.508095 37,000 172 441 -64
2020-10-21 02:22:46 GMT 38.046772 -83.509705 37,000 172 441 -64
2020-10-21 02:22:43 GMT 38.054871 -83.510963 37,000 172 441 -64
2020-10-21 02:22:36 GMT 38.067814 -83.512993 37,000 172 441 -64
2020-10-21 02:22:31 GMT 38.077560 -83.514503 37,000 172 441 0
2020-10-21 02:22:25 GMT 38.088902 -83.516273 37,025 172 441 0
2020-10-21 02:22:22 GMT 38.094955 -83.517189 37,025 172 441 0
2020-10-21 02:22:19 GMT 38.099625 -83.517952 37,025 172 441 0
2020-10-21 02:22:15 GMT 38.109337 -83.519440 37,025 172 442 0
2020-10-21 02:22:10 GMT 38.120930 -83.521233 37,025 172 442 0
2020-10-21 02:22:05 GMT 38.130249 -83.522682 37,025 172 442 0
2020-10-21 02:22:01 GMT 38.136978 -83.523735 37,025 172 442 0
2020-10-21 02:21:57 GMT 38.144485 -83.524841 37,000 173 443 64
2020-10-21 02:21:54 GMT 38.151794 -83.526009 37,000 173 443 64
2020-10-21 02:21:51 GMT 38.157120 -83.526833 37,000 173 443 64
2020-10-21 02:21:48 GMT 38.165039 -83.528000 37,000 173 443 64
2020-10-21 02:21:42 GMT 38.177677 -83.529945 37,000 173 444 0
2020-10-21 02:21:37 GMT 38.188057 -83.531502 37,000 173 444 -64
2020-10-21 02:21:31 GMT 38.198868 -83.533142 37,000 173 444 -64
2020-10-21 02:21:26 GMT 38.208893 -83.534660 37,000 173 444 -64
2020-10-21 02:21:21 GMT 38.220085 -83.536400 37,025 172 444 0
2020-10-21 02:21:16 GMT 38.230316 -83.537933 37,025 173 444 0
2020-10-21 02:21:11 GMT 38.240295 -83.539452 37,025 173 444 0
2020-10-21 02:21:08 GMT 38.245377 -83.540215 37,025 173 444 0
2020-10-21 02:21:05 GMT 38.251694 -83.541145 37,025 173 444 0
2020-10-21 02:21:02 GMT 38.259476 -83.542374 37,000 173 444 0
2020-10-21 02:20:58 GMT 38.265568 -83.543320 37,025 172 444 0
2020-10-21 02:20:54 GMT 38.272522 -83.544418 37,025 172 444 0
2020-10-21 02:20:50 GMT 38.283371 -83.546173 37,025 172 445 0
2020-10-21 02:20:42 GMT 38.298889 -83.548744 37,025 172 445 0
2020-10-21 02:20:38 GMT 38.305206 -83.549797 37,025 172 445 64
2020-10-21 02:20:32 GMT 38.321136 -83.552544 37,000 172 445 128
2020-10-21 02:20:28 GMT 38.328278 -83.553772 37,000 172 446 128
2020-10-21 02:20:24 GMT 38.336884 -83.555176 37,000 174 444 64
2020-10-21 02:20:21 GMT 38.340981 -83.555679 37,000 178 442 0
2020-10-21 02:20:18 GMT 38.349976 -83.556458 37,000 178 442 0
2020-10-21 02:20:10 GMT 38.366028 -83.556519 37,000 183 438 64
2020-10-21 02:20:07 GMT 38.370075 -83.556282 37,000 185 436 0
2020-10-21 02:20:01 GMT 38.382973 -83.554848 37,000 187 435 0
2020-10-21 02:19:57 GMT 38.391769 -83.553535 36,975 187 435 0
2020-10-21 02:19:50 GMT 38.409027 -83.551025 37,000 187 435 -64
2020-10-21 02:19:47 GMT 38.424591 -83.548813 37,000 187 434 0
2020-10-21 02:19:40 GMT 38.424591 -83.548813 37,000 187 434 -64
2020-10-21 02:19:36 GMT 38.431595 -83.547798 37,000 187 434 0
2020-10-21 02:19:32 GMT 38.439789 -83.546608 37,000 187 434 0
2020-10-21 02:19:28 GMT 38.447773 -83.545410 37,000 187 434 0
2020-10-21 02:19:25 GMT 38.455765 -83.544281 37,000 187 433 0
2020-10-21 02:19:21 GMT 38.463367 -83.543213 37,000 187 433 0
2020-10-21 02:19:17 GMT 38.471516 -83.541992 37,000 187 434 0
2020-10-21 02:19:14 GMT 38.481709 -83.540588 37,000 187 433 -64
2020-10-21 02:19:11 GMT 38.481709 -83.540588 37,000 187 433 -64
2020-10-21 02:19:08 GMT 38.489319 -83.539505 37,000 187 433 -64
2020-10-21 02:19:04 GMT 38.495499 -83.538605 37,000 187 433 -64
2020-10-21 02:18:59 GMT 38.507629 -83.536873 37,000 187 433 0
2020-10-21 02:18:55 GMT 38.514221 -83.535919 37,000 187 433 0
2020-10-21 02:18:50 GMT 38.526398 -83.534180 37,000 187 433 0
2020-10-21 02:18:47 GMT 38.529938 -83.533691 37,025 187 433 0
2020-10-21 02:18:44 GMT 38.536129 -83.532776 37,000 187 433 0
2020-10-21 02:18:39 GMT 38.547272 -83.531143 37,000 187 432 0
2020-10-21 02:18:36 GMT 38.553680 -83.530212 37,025 187 432 0
2020-10-21 02:18:33 GMT 38.556656 -83.529770 37,000 187 432 0
2020-10-21 02:18:28 GMT 38.568390 -83.528015 37,025 187 432 0
2020-10-21 02:18:25 GMT 38.573372 -83.527344 37,000 187 432 0
2020-10-21 02:18:16 GMT 38.598274 -83.523743 37,000 187 433 64
2020-10-21 02:18:12 GMT 38.598274 -83.523743 37,000 187 433 64
2020-10-21 02:18:05 GMT 38.615204 -83.521408 37,000 187 433 0
2020-10-21 02:17:55 GMT 38.632324 -83.519081 37,000 187 433 0
2020-10-21 02:17:52 GMT 38.639103 -83.518127 37,000 187 432 -64
2020-10-21 02:17:45 GMT 38.653023 -83.516235 37,000 187 432 0
2020-10-21 02:17:41 GMT 38.660156 -83.515259 37,000 187 432 0
2020-10-21 02:17:34 GMT 38.676865 -83.512932 37,000 187 431 0
2020-10-21 02:17:31 GMT 38.681046 -83.512390 37,000 187 432 64
2020-10-21 02:17:26 GMT 38.692963 -83.510742 37,000 187 431 0
2020-10-21 02:17:23 GMT 38.698929 -83.509949 37,000 187 432 0
2020-10-21 02:17:20 GMT 38.702682 -83.509468 37,000 187 432 0
2020-10-21 02:17:14 GMT 38.713818 -83.507935 37,000 186 431 64
2020-10-21 02:17:11 GMT 38.722549 -83.506783 37,000 186 431 64
2020-10-21 02:17:04 GMT 38.734451 -83.505226 37,000 186 430 0
2020-10-21 02:17:00 GMT 38.743195 -83.504089 37,000 186 431 0
2020-10-21 02:16:55 GMT 38.754135 -83.502663 37,000 186 431 0
2020-10-21 02:16:50 GMT 38.764050 -83.501404 37,000 186 431 0
2020-10-21 02:16:44 GMT 38.774570 -83.500000 37,000 186 431 0
2020-10-21 02:16:39 GMT 38.784485 -83.498718 37,000 186 430 0
2020-10-21 02:16:33 GMT 38.806046 -83.495972 37,000 186 430 0
2020-10-21 02:16:29 GMT 38.806046 -83.495972 37,000 186 430 0
2020-10-21 02:16:23 GMT 38.816940 -83.494537 37,000 186 430 0
2020-10-21 02:16:20 GMT 38.822708 -83.493828 37,000 186 430 0
2020-10-21 02:16:17 GMT 38.826660 -83.493286 37,000 186 430 0
2020-10-21 02:16:14 GMT 38.835133 -83.492188 37,000 186 429 -64
2020-10-21 02:16:11 GMT 38.840302 -83.491455 37,000 187 429 0
2020-10-21 02:16:08 GMT 38.847610 -83.490479 37,000 187 429 0
2020-10-21 02:16:03 GMT 38.856457 -83.489319 37,000 187 429 0
2020-10-21 02:16:00 GMT 38.861984 -83.488571 37,000 187 429 64
2020-10-21 02:15:57 GMT 38.867706 -83.487793 37,000 187 429 64
2020-10-21 02:15:53 GMT 38.875031 -83.486839 37,000 186 429 0
2020-10-21 02:15:50 GMT 38.880756 -83.486084 37,000 186 428 64
2020-10-21 02:15:47 GMT 38.887646 -83.485168 37,000 186 429 64
2020-10-21 02:15:41 GMT 38.901051 -83.483398 36,975 186 429 0
2020-10-21 02:15:36 GMT 38.918610 -83.481110 37,000 186 428 0
2020-10-21 02:15:31 GMT 38.918610 -83.481110 37,000 186 429 -64
2020-10-21 02:15:28 GMT 38.924934 -83.480286 37,000 186 428 0
2020-10-21 02:15:20 GMT 38.941315 -83.478241 37,000 186 428 64
2020-10-21 02:15:15 GMT 38.950150 -83.477104 37,000 186 428 64
2020-10-21 02:15:12 GMT 38.955704 -83.476440 36,975 186 427 64
2020-10-21 02:15:09 GMT 38.961803 -83.475647 36,975 186 427 64
2020-10-21 02:15:05 GMT 38.971066 -83.474548 36,975 186 427 0
2020-10-21 02:15:02 GMT 38.975967 -83.473946 36,975 186 427 0
2020-10-21 02:14:58 GMT 38.992310 -83.471909 36,975 186 427 0
2020-10-21 02:14:55 GMT 38.992310 -83.471909 36,975 186 427 -64
2020-10-21 02:14:50 GMT 39.007278 -83.470123 37,000 186 426 0
2020-10-21 02:14:43 GMT 39.012173 -83.469543 37,000 186 426 0
2020-10-21 02:14:40 GMT 39.021015 -83.468445 37,000 186 426 0
2020-10-21 02:14:37 GMT 39.033630 -83.466919 37,000 186 426 0
2020-10-21 02:14:33 GMT 39.033630 -83.466919 37,000 186 425 -64
2020-10-21 02:14:29 GMT 39.041267 -83.466003 37,000 186 426 0
2020-10-21 02:14:26 GMT 39.048752 -83.465103 37,000 186 426 0
2020-10-21 02:14:23 GMT 39.052860 -83.464600 37,000 186 425 -64
2020-10-21 02:14:16 GMT 39.065231 -83.463135 37,000 186 425 0
2020-10-21 02:14:13 GMT 39.073853 -83.462097 37,000 186 425 0
2020-10-21 02:14:09 GMT 39.081535 -83.461182 37,000 186 425 -64
2020-10-21 02:14:05 GMT 39.088577 -83.460327 37,000 186 425 -64
2020-10-21 02:14:01 GMT 39.097000 -83.459251 37,000 186 425 0
2020-10-21 02:13:57 GMT 39.104645 -83.458359 37,025 186 425 0
2020-10-21 02:13:53 GMT 39.110733 -83.457581 37,025 186 425 -64
2020-10-21 02:13:50 GMT 39.117004 -83.456802 37,025 186 425 -64
2020-10-21 02:13:47 GMT 39.124454 -83.455872 37,025 186 425 -64
2020-10-21 02:13:44 GMT 39.131104 -83.455070 37,025 186 425 -64
2020-10-21 02:13:40 GMT 39.137192 -83.454361 37,025 186 425 -64
2020-10-21 02:13:36 GMT 39.146027 -83.453224 37,025 186 425 -128
2020-10-21 02:13:33 GMT 39.150925 -83.452629 37,025 186 425 -64
2020-10-21 02:13:29 GMT 39.157791 -83.451790 37,025 186 425 0
2020-10-21 02:13:26 GMT 39.165436 -83.450836 37,025 186 425 -64
2020-10-21 02:13:19 GMT 39.178596 -83.449219 37,025 186 425 -64
2020-10-21 02:13:15 GMT 39.187637 -83.448090 37,050 186 425 0
2020-10-21 02:13:11 GMT 39.196060 -83.447014 37,050 186 425 0
2020-10-21 02:13:07 GMT 39.202927 -83.446175 37,050 186 425 0
2020-10-21 02:13:02 GMT 39.210159 -83.445282 37,050 186 425 0
2020-10-21 02:12:59 GMT 39.216816 -83.444458 37,025 186 425 64
2020-10-21 02:12:56 GMT 39.223709 -83.443550 37,025 186 425 64
2020-10-21 02:12:52 GMT 39.232735 -83.442444 37,025 186 425 64
2020-10-21 02:12:49 GMT 39.238232 -83.441772 37,025 186 425 64
2020-10-21 02:12:46 GMT 39.243118 -83.441162 37,025 186 425 64
2020-10-21 02:12:43 GMT 39.249588 -83.440369 37,025 186 425 64
2020-10-21 02:12:39 GMT 39.256058 -83.439575 37,025 186 426 64
2020-10-21 02:12:36 GMT 39.264313 -83.438599 37,025 186 426 0
2020-10-21 02:12:31 GMT 39.274120 -83.437439 37,025 186 426 0
2020-10-21 02:12:27 GMT 39.280426 -83.436684 37,025 186 426 0
2020-10-21 02:12:24 GMT 39.284363 -83.436264 37,025 186 426 0
2020-10-21 02:12:21 GMT 39.293976 -83.435135 37,025 186 426 0
2020-10-21 02:12:18 GMT 39.299911 -83.434448 37,025 185 426 0
2020-10-21 02:12:14 GMT 39.304596 -83.433937 37,000 185 426 0
2020-10-21 02:12:11 GMT 39.311508 -83.433159 37,000 185 426 0
2020-10-21 02:12:08 GMT 39.317596 -83.432442 37,000 185 426 64
2020-10-21 02:12:05 GMT 39.325050 -83.431641 37,000 185 426 64
2020-10-21 02:12:01 GMT 39.332314 -83.430786 37,000 186 425 64
2020-10-21 02:11:57 GMT 39.338409 -83.430115 37,000 186 425 64
2020-10-21 02:11:52 GMT 39.348633 -83.428925 37,000 186 425 64
2020-10-21 02:11:48 GMT 39.358242 -83.427856 37,000 186 425 64
2020-10-21 02:11:45 GMT 39.362320 -83.427368 37,000 186 424 0
2020-10-21 02:11:42 GMT 39.369785 -83.426514 37,000 177 426 -64
2020-10-21 02:11:38 GMT 39.377609 -83.425636 37,000 186 424 0
2020-10-21 02:11:34 GMT 39.385666 -83.424683 37,000 186 424 0
2020-10-21 02:11:29 GMT 39.394043 -83.423729 36,975 185 424 0
2020-10-21 02:11:26 GMT 39.405586 -83.422424 36,975 186 423 0
2020-10-21 02:11:23 GMT 39.405586 -83.422424 37,000 185 424 0
2020-10-21 02:11:19 GMT 39.415176 -83.421326 37,000 186 423 -64
2020-10-21 02:11:16 GMT 39.418076 -83.420982 36,975 186 423 -64
2020-10-21 02:11:13 GMT 39.425720 -83.420143 37,000 185 423 0
2020-10-21 02:11:07 GMT 39.437565 -83.418823 37,000 185 422 64
2020-10-21 02:11:03 GMT 39.445572 -83.418030 36,975 185 423 64
2020-10-21 02:10:57 GMT 39.457119 -83.417175 36,975 183 424 0
2020-10-21 02:10:54 GMT 39.463963 -83.416931 36,975 182 424 0
2020-10-21 02:10:49 GMT 39.471451 -83.416924 37,000 178 426 -64
2020-10-21 02:10:46 GMT 39.477951 -83.417099 37,000 176 426 -64
2020-10-21 02:10:43 GMT 39.483837 -83.417480 37,000 175 427 -64
2020-10-21 02:10:40 GMT 39.500412 -83.419312 37,000 174 428 0
2020-10-21 02:10:34 GMT 39.500412 -83.419312 37,000 174 427 0
2020-10-21 02:10:31 GMT 39.507889 -83.420326 37,000 174 428 0
2020-10-21 02:10:27 GMT 39.517731 -83.421631 37,000 174 427 0
2020-10-21 02:10:24 GMT 39.522243 -83.422180 37,000 174 427 64
2020-10-21 02:10:21 GMT 39.529724 -83.423187 37,000 174 427 0
2020-10-21 02:10:13 GMT 39.543503 -83.425041 37,000 174 427 0
2020-10-21 02:10:10 GMT 39.548996 -83.425758 37,000 174 427 0
2020-10-21 02:10:04 GMT 39.561951 -83.427429 37,000 174 426 0
2020-10-21 02:10:01 GMT 39.567448 -83.428162 37,000 174 426 0
2020-10-21 02:09:58 GMT 39.571545 -83.428711 36,975 174 426 0
2020-10-21 02:09:52 GMT 39.585091 -83.430481 37,000 174 426 -64
2020-10-21 02:09:48 GMT 39.591560 -83.431335 37,000 174 426 -64
2020-10-21 02:09:44 GMT 39.599625 -83.432388 37,000 174 426 -64
2020-10-21 02:09:41 GMT 39.607269 -83.433403 37,000 174 426 -64
2020-10-21 02:09:38 GMT 39.611767 -83.434021 37,000 174 426 -64
2020-10-21 02:09:34 GMT 39.618805 -83.434952 37,000 174 425 0
2020-10-21 02:09:31 GMT 39.633507 -83.436890 37,000 174 425 0
2020-10-21 02:09:28 GMT 39.633507 -83.436890 37,000 174 425 0
2020-10-21 02:09:23 GMT 39.642906 -83.438110 37,000 174 425 0
2020-10-21 02:09:19 GMT 39.648540 -83.438843 37,000 174 425 0
2020-10-21 02:09:16 GMT 39.653664 -83.439514 37,000 174 425 0
2020-10-21 02:09:12 GMT 39.662460 -83.440674 37,000 174 425 0
2020-10-21 02:09:08 GMT 39.669479 -83.441643 36,975 174 425 0
2020-10-21 02:09:02 GMT 39.683361 -83.443481 37,000 174 425 0
2020-10-21 02:08:59 GMT 39.688843 -83.444206 37,000 174 425 0
2020-10-21 02:08:54 GMT 39.699188 -83.445580 37,000 174 425 64
2020-10-21 02:08:50 GMT 39.705643 -83.446480 37,000 174 425 64
2020-10-21 02:08:46 GMT 39.713482 -83.447510 37,000 174 425 64
2020-10-21 02:08:43 GMT 39.720520 -83.448448 37,000 174 425 64
2020-10-21 02:08:40 GMT 39.727341 -83.449341 37,000 174 425 64
2020-10-21 02:08:36 GMT 39.734985 -83.450356 36,975 174 425 0
2020-10-21 02:08:32 GMT 39.740063 -83.451050 36,975 174 425 64
2020-10-21 02:08:29 GMT 39.746487 -83.451904 36,975 174 425 0
2020-10-21 02:08:26 GMT 39.758652 -83.453583 36,975 174 425 128
2020-10-21 02:08:23 GMT 39.758652 -83.453583 36,975 174 425 64
2020-10-21 02:08:17 GMT 39.772705 -83.455490 36,975 174 425 0
2020-10-21 02:08:13 GMT 39.779160 -83.456329 36,975 174 425 0
2020-10-21 02:08:09 GMT 39.786392 -83.457283 36,975 174 424 0
2020-10-21 02:08:06 GMT 39.790512 -83.457825 36,975 174 424 0
2020-10-21 02:08:03 GMT 39.796947 -83.458679 36,975 174 424 0
2020-10-21 02:08:00 GMT 39.802212 -83.459412 36,975 174 423 0
2020-10-21 02:07:57 GMT 39.810589 -83.460510 36,975 174 423 0
2020-10-21 02:07:54 GMT 39.823437 -83.462219 36,975 174 423 0
2020-10-21 02:07:51 GMT 39.823437 -83.462219 36,975 174 423 -64
2020-10-21 02:07:48 GMT 39.826355 -83.462601 36,975 174 423 0
2020-10-21 02:07:45 GMT 39.833351 -83.463562 36,975 174 423 -64
2020-10-21 02:07:42 GMT 39.843128 -83.464844 36,975 174 423 -64
2020-10-21 02:07:36 GMT 39.850113 -83.465759 36,975 174 423 -64
2020-10-21 02:07:33 GMT 39.854782 -83.466415 36,975 174 423 -64
2020-10-21 02:07:30 GMT 39.862541 -83.467407 36,975 174 423 -64
2020-10-21 02:07:26 GMT 39.870129 -83.468445 37,000 174 423 -64
2020-10-21 02:07:21 GMT 39.878677 -83.469582 37,000 174 422 -64
2020-10-21 02:07:17 GMT 39.889389 -83.471016 37,000 174 422 0
2020-10-21 02:07:13 GMT 39.895020 -83.471794 37,000 174 422 -64
2020-10-21 02:07:08 GMT 39.903183 -83.472839 37,000 174 422 0
2020-10-21 02:07:05 GMT 39.910770 -83.473877 37,000 174 422 0
2020-10-21 02:07:01 GMT 39.918732 -83.474976 37,000 174 422 0
2020-10-21 02:06:58 GMT 39.925480 -83.475868 37,000 174 422 0
2020-10-21 02:06:53 GMT 39.933861 -83.477058 37,000 174 422 0
2020-10-21 02:06:50 GMT 39.938515 -83.477676 37,025 174 424 0
2020-10-21 02:06:47 GMT 39.947067 -83.478821 37,000 174 422 0
2020-10-21 02:06:44 GMT 39.950943 -83.479362 37,000 174 423 0
2020-10-21 02:06:41 GMT 39.956039 -83.480042 37,000 174 423 0
2020-10-21 02:06:38 GMT 39.963226 -83.481018 37,025 174 423 0
2020-10-21 02:06:34 GMT 39.972748 -83.482300 37,025 174 423 0
2020-10-21 02:06:30 GMT 39.977829 -83.482971 37,025 174 423 0
2020-10-21 02:06:27 GMT 39.984650 -83.483887 37,025 174 423 0
2020-10-21 02:06:22 GMT 39.995541 -83.485359 37,025 174 424 -64
2020-10-21 02:06:19 GMT 39.998848 -83.485794 37,025 174 424 -64
2020-10-21 02:06:15 GMT 40.009186 -83.487183 37,025 174 424 -64
2020-10-21 02:06:12 GMT 40.014862 -83.487915 37,025 174 424 -64
2020-10-21 02:06:09 GMT 40.018955 -83.488480 37,025 174 424 -64
2020-10-21 02:06:06 GMT 40.025986 -83.489380 37,025 174 424 -64
2020-10-21 02:06:02 GMT 40.032028 -83.490173 37,025 174 424 0
2020-10-21 02:05:59 GMT 40.046036 -83.492065 37,025 174 424 0
2020-10-21 02:05:55 GMT 40.046036 -83.492065 37,025 174 424 0
2020-10-21 02:05:52 GMT 40.052856 -83.492981 37,050 174 424 0
2020-10-21 02:05:49 GMT 40.057735 -83.493599 37,025 174 424 0
2020-10-21 02:05:46 GMT 40.065170 -83.494629 37,025 174 424 0
2020-10-21 02:05:41 GMT 40.073914 -83.495789 37,025 174 424 0
2020-10-21 02:05:38 GMT 40.078445 -83.496399 37,025 174 424 -64
2020-10-21 02:05:35 GMT 40.086224 -83.497406 37,050 174 424 0
2020-10-21 02:05:32 GMT 40.092087 -83.498230 37,050 174 424 0
2020-10-21 02:05:29 GMT 40.097580 -83.498962 37,050 174 424 0
2020-10-21 02:05:26 GMT 40.104401 -83.499878 37,050 174 424 0
2020-10-21 02:05:22 GMT 40.113373 -83.501038 37,025 174 424 128
2020-10-21 02:05:19 GMT 40.119045 -83.501839 37,050 174 424 0
2020-10-21 02:05:15 GMT 40.126465 -83.502808 37,025 174 424 64
2020-10-21 02:05:11 GMT 40.131729 -83.503540 37,025 174 424 0
2020-10-21 02:05:08 GMT 40.139156 -83.504524 37,025 174 425 0
2020-10-21 02:05:04 GMT 40.146416 -83.505524 37,025 174 425 0
2020-10-21 02:05:01 GMT 40.152283 -83.506287 37,025 174 425 0
2020-10-21 02:04:57 GMT 40.161438 -83.507507 37,025 174 425 0
2020-10-21 02:04:54 GMT 40.167114 -83.508301 37,025 174 425 64
2020-10-21 02:04:51 GMT 40.172562 -83.509033 37,025 174 424 128
2020-10-21 02:04:46 GMT 40.185837 -83.510803 37,025 174 424 128
2020-10-21 02:04:40 GMT 40.192703 -83.511719 37,000 174 424 128
2020-10-21 02:04:37 GMT 40.198746 -83.512573 37,000 174 424 128
2020-10-21 02:04:33 GMT 40.207535 -83.513733 37,000 174 424 128
2020-10-21 02:04:30 GMT 40.213165 -83.514465 36,975 174 424 64
2020-10-21 02:04:27 GMT 40.217880 -83.515137 37,000 174 424 64
2020-10-21 02:04:23 GMT 40.226257 -83.516235 36,975 174 424 64
2020-10-21 02:04:20 GMT 40.233284 -83.517189 36,975 174 424 0
2020-10-21 02:04:17 GMT 40.237610 -83.517761 36,975 174 424 0
2020-10-21 02:04:12 GMT 40.248138 -83.519165 36,975 174 423 64
2020-10-21 02:04:09 GMT 40.252975 -83.519814 36,975 174 423 64
2020-10-21 02:04:06 GMT 40.258656 -83.520561 36,975 174 422 0
2020-10-21 02:04:03 GMT 40.265625 -83.521484 36,975 174 423 64
2020-10-21 02:04:00 GMT 40.277893 -83.523132 36,975 174 422 64
2020-10-21 02:03:57 GMT 40.277893 -83.523132 36,975 174 422 64
2020-10-21 02:03:52 GMT 40.286076 -83.524246 36,950 174 422 0
2020-10-21 02:03:49 GMT 40.293823 -83.525269 36,950 174 422 -64
2020-10-21 02:03:46 GMT 40.297710 -83.525810 36,950 174 422 -64
2020-10-21 02:03:41 GMT 40.309162 -83.527306 36,975 174 422 -64
2020-10-21 02:03:38 GMT 40.313416 -83.527893 36,975 174 421 -64
2020-10-21 02:03:35 GMT 40.320011 -83.528740 36,975 174 421 -64
2020-10-21 02:03:32 GMT 40.324852 -83.529366 36,975 174 421 0
2020-10-21 02:03:29 GMT 40.332394 -83.530365 36,975 174 420 0
2020-10-21 02:03:26 GMT 40.338226 -83.531128 36,975 174 420 0
2020-10-21 02:03:22 GMT 40.344776 -83.532051 36,975 174 420 0
2020-10-21 02:03:18 GMT 40.353653 -83.533203 36,975 174 420 0
2020-10-21 02:03:14 GMT 40.359650 -83.533997 36,975 174 419 0
2020-10-21 02:03:10 GMT 40.374710 -83.536011 36,975 174 419 0
2020-10-21 02:03:07 GMT 40.378387 -83.536545 36,975 174 419 0
2020-10-21 02:03:04 GMT 40.385330 -83.537476 36,975 174 419 -64
2020-10-21 02:03:01 GMT 40.385330 -83.537476 36,975 174 419 0
2020-10-21 02:02:58 GMT 40.392632 -83.538483 36,975 174 419 0
2020-10-21 02:02:55 GMT 40.398636 -83.539230 36,975 174 419 0
2020-10-21 02:02:50 GMT 40.413071 -83.541199 37,000 173 418 -64
2020-10-21 02:02:47 GMT 40.413071 -83.541199 36,975 173 418 -64
2020-10-21 02:02:43 GMT 40.418842 -83.542038 37,000 173 418 -64
2020-10-21 02:02:40 GMT 40.425568 -83.542908 37,000 174 418 64
2020-10-21 02:02:36 GMT 40.435181 -83.544220 37,000 173 418 -64
2020-10-21 02:02:33 GMT 40.438068 -83.544655 37,000 173 418 -64
2020-10-21 02:02:30 GMT 40.444817 -83.545593 37,000 173 418 -64
2020-10-21 02:02:27 GMT 40.450218 -83.546341 37,000 173 418 -64
2020-10-21 02:02:24 GMT 40.457710 -83.547340 37,025 173 418 0
2020-10-21 02:02:20 GMT 40.465206 -83.548401 37,025 173 418 -64
2020-10-21 02:02:17 GMT 40.469833 -83.549072 37,025 173 418 -64
2020-10-21 02:02:14 GMT 40.475189 -83.549805 37,025 173 418 -64
2020-10-21 02:02:11 GMT 40.483875 -83.551025 37,025 173 418 0
2020-10-21 02:02:07 GMT 40.497345 -83.552917 37,025 173 419 -64
2020-10-21 02:02:03 GMT 40.497345 -83.552917 37,025 173 419 0
2020-10-21 02:02:00 GMT 40.505264 -83.554016 37,025 173 419 0
2020-10-21 02:01:57 GMT 40.510269 -83.554710 37,025 174 419 -64
2020-10-21 02:01:53 GMT 40.517990 -83.555725 37,025 174 419 -64
2020-10-21 02:01:48 GMT 40.526642 -83.556946 37,025 174 419 -64
2020-10-21 02:01:44 GMT 40.534195 -83.557922 37,025 174 419 -64
2020-10-21 02:01:41 GMT 40.541702 -83.558899 37,025 174 418 0
2020-10-21 02:01:38 GMT 40.544579 -83.559265 37,050 174 419 0
2020-10-21 02:01:35 GMT 40.549793 -83.559952 37,050 174 418 0
2020-10-21 02:01:32 GMT 40.556351 -83.560791 37,025 175 418 128
2020-10-21 02:01:29 GMT 40.561340 -83.561401 37,025 174 418 64
2020-10-21 02:01:26 GMT 40.569443 -83.562378 37,025 174 418 64
2020-10-21 02:01:23 GMT 40.574467 -83.562950 37,025 174 418 64
2020-10-21 02:01:20 GMT 40.581589 -83.563820 37,025 174 418 64
2020-10-21 02:01:16 GMT 40.589081 -83.564636 37,025 175 418 64
2020-10-21 02:01:13 GMT 40.593521 -83.565125 37,025 175 418 64
2020-10-21 02:01:10 GMT 40.600117 -83.565819 37,000 175 418 128
2020-10-21 02:01:07 GMT 40.604912 -83.566322 37,000 175 418 128
2020-10-21 02:01:04 GMT 40.610310 -83.566940 37,000 174 419 64
2020-10-21 02:01:01 GMT 40.616688 -83.567696 37,000 173 420 64
2020-10-21 02:00:57 GMT 40.625393 -83.569130 37,000 169 425 64
2020-10-21 02:00:54 GMT 40.631397 -83.570503 37,000 165 430 64
2020-10-21 02:00:51 GMT 40.636826 -83.572083 37,000 165 430 64
2020-10-21 02:00:46 GMT 40.647552 -83.576057 37,000 159 437 0
2020-10-21 02:00:42 GMT 40.652893 -83.578552 37,000 159 437 0
2020-10-21 02:00:39 GMT 40.657608 -83.580933 37,000 157 440 -64
2020-10-21 02:00:35 GMT 40.666637 -83.586105 37,000 155 443 0
2020-10-21 02:00:32 GMT 40.672413 -83.589539 37,000 155 443 0
2020-10-21 02:00:29 GMT 40.676331 -83.591858 37,000 155 443 -64
2020-10-21 02:00:25 GMT 40.687500 -83.598511 37,000 155 442 0
2020-10-21 02:00:22 GMT 40.691254 -83.600708 37,000 155 443 -64
2020-10-21 02:00:19 GMT 40.696850 -83.604080 37,000 155 442 0
2020-10-21 02:00:15 GMT 40.705032 -83.608948 37,000 155 443 0
2020-10-21 02:00:12 GMT 40.710629 -83.612328 37,000 155 443 -64
2020-10-21 02:00:09 GMT 40.714912 -83.614883 37,000 155 443 -64
2020-10-21 02:00:06 GMT 40.721603 -83.618896 37,000 155 442 0
2020-10-21 02:00:03 GMT 40.726273 -83.621689 37,000 155 443 0
2020-10-21 01:59:59 GMT 40.734833 -83.626892 37,000 155 442 0
2020-10-21 01:59:53 GMT 40.744289 -83.632614 37,000 155 442 0
2020-10-21 01:59:50 GMT 40.751923 -83.637230 37,000 155 442 0
2020-10-21 01:59:47 GMT 40.756763 -83.640099 37,000 155 442 0
2020-10-21 01:59:44 GMT 40.761417 -83.642914 37,000 155 442 0
2020-10-21 01:59:41 GMT 40.768112 -83.646973 37,000 155 442 0
2020-10-21 01:59:38 GMT 40.778915 -83.653503 37,000 155 443 -64
2020-10-21 01:59:35 GMT 40.778915 -83.653503 37,000 155 443 -64
2020-10-21 01:59:32 GMT 40.784454 -83.656860 37,000 155 443 -64
2020-10-21 01:59:29 GMT 40.795074 -83.663200 37,000 155 442 0
2020-10-21 01:59:26 GMT 40.795074 -83.663200 37,000 155 441 64
2020-10-21 01:59:23 GMT 40.800659 -83.666504 37,000 155 442 64
2020-10-21 01:59:20 GMT 40.806248 -83.669876 37,000 155 441 0
2020-10-21 01:59:16 GMT 40.812206 -83.673370 37,000 158 438 0
2020-10-21 01:59:12 GMT 40.822128 -83.678955 37,000 158 438 0
2020-10-21 01:59:08 GMT 40.828362 -83.682175 37,000 158 437 0
2020-10-21 01:59:05 GMT 40.834599 -83.685295 37,000 161 433 0
2020-10-21 01:59:02 GMT 40.839523 -83.687561 37,000 161 434 0
2020-10-21 01:58:59 GMT 40.845215 -83.690041 37,000 162 432 -64
2020-10-21 01:58:56 GMT 40.850555 -83.692261 37,000 163 430 0
2020-10-21 01:58:50 GMT 40.864151 -83.697205 37,000 165 428 0
2020-10-21 01:58:46 GMT 40.869884 -83.699219 37,000 165 428 0
2020-10-21 01:58:42 GMT 40.878868 -83.702339 37,000 165 428 0
2020-10-21 01:58:39 GMT 40.883102 -83.703796 37,000 165 428 0
2020-10-21 01:58:36 GMT 40.890564 -83.706360 37,000 165 428 0
2020-10-21 01:58:31 GMT 40.898979 -83.709328 37,000 165 428 0
2020-10-21 01:58:28 GMT 40.903931 -83.711060 37,000 165 428 0
2020-10-21 01:58:25 GMT 40.911804 -83.713806 37,000 165 428 0
2020-10-21 01:58:22 GMT 40.916763 -83.715569 37,000 165 429 -64
2020-10-21 01:58:19 GMT 40.921967 -83.717407 37,000 165 429 -64
2020-10-21 01:58:16 GMT 40.928650 -83.719788 37,000 164 428 0
2020-10-21 01:58:11 GMT 40.938629 -83.723328 37,000 164 429 0
2020-10-21 01:58:08 GMT 40.944370 -83.725372 37,000 164 429 0
2020-10-21 01:58:04 GMT 40.949570 -83.727234 37,000 164 430 0
2020-10-21 01:58:00 GMT 40.957809 -83.730225 37,000 164 430 0
2020-10-21 01:57:57 GMT 40.965317 -83.732849 37,000 165 430 0
2020-10-21 01:57:54 GMT 40.970490 -83.734619 37,000 165 430 64
2020-10-21 01:57:50 GMT 40.978817 -83.737358 37,000 166 429 64
2020-10-21 01:57:46 GMT 40.986740 -83.739685 36,975 171 424 0
2020-10-21 01:57:43 GMT 40.989624 -83.740417 36,975 169 427 0
2020-10-21 01:57:40 GMT 40.998367 -83.742493 37,000 170 425 0
2020-10-21 01:57:37 GMT 41.004364 -83.743713 37,000 172 422 0
2020-10-21 01:57:33 GMT 41.009628 -83.744629 37,000 172 422 64
2020-10-21 01:57:30 GMT 41.018528 -83.745911 37,000 174 418 0
2020-10-21 01:57:27 GMT 41.021412 -83.746284 37,000 175 417 0
2020-10-21 01:57:24 GMT 41.029282 -83.747093 36,875 177 405 640
2020-10-21 01:57:20 GMT 41.035812 -83.747803 37,000 175 416 0
2020-10-21 01:57:17 GMT 41.040436 -83.748291 37,000 175 416 0
2020-10-21 01:57:13 GMT 41.050781 -83.749451 37,000 175 415 0
2020-10-21 01:57:10 GMT 41.056885 -83.750153 37,000 175 414 64
2020-10-21 01:57:06 GMT 41.060898 -83.750610 37,000 175 413 64
2020-10-21 01:57:03 GMT 41.068523 -83.751404 37,000 175 412 64
2020-10-21 01:57:00 GMT 41.074760 -83.752090 37,000 175 412 64
2020-10-21 01:56:57 GMT 41.079929 -83.752647 36,975 175 412 128
2020-10-21 01:56:53 GMT 41.086540 -83.753403 36,975 175 411 192
2020-10-21 01:56:50 GMT 41.092987 -83.754089 36,975 175 411 128
2020-10-21 01:56:47 GMT 41.099991 -83.754822 36,950 175 410 128
2020-10-21 01:56:44 GMT 41.104706 -83.755310 36,950 175 409 192
2020-10-21 01:56:41 GMT 41.108505 -83.755676 36,950 175 409 256
2020-10-21 01:56:38 GMT 41.116241 -83.756409 36,925 175 408 320
2020-10-21 01:56:35 GMT 41.120754 -83.756828 36,925 175 408 320
2020-10-21 01:56:32 GMT 41.127502 -83.757446 36,875 176 407 448
2020-10-21 01:56:29 GMT 41.133362 -83.757935 36,875 176 406 512
2020-10-21 01:56:25 GMT 41.138809 -83.758423 36,850 176 406 448
2020-10-21 01:56:22 GMT 41.145008 -83.758888 36,825 176 406 512
2020-10-21 01:56:19 GMT 41.151199 -83.759331 36,775 177 406 448
2020-10-21 01:56:16 GMT 41.158508 -83.759827 36,750 177 405 512
2020-10-21 01:56:11 GMT 41.165073 -83.760201 36,725 177 405 640
2020-10-21 01:56:08 GMT 41.173691 -83.760742 36,650 177 406 704
2020-10-21 01:56:05 GMT 41.177780 -83.761017 36,650 176 406 704
2020-10-21 01:56:02 GMT 41.184174 -83.761536 36,550 174 409 704
2020-10-21 01:55:58 GMT 41.192276 -83.762573 36,575 173 410 768
2020-10-21 01:55:55 GMT 41.196854 -83.763306 36,525 171 414 832
2020-10-21 01:55:52 GMT 41.202713 -83.764404 36,475 169 416 704
2020-10-21 01:55:48 GMT 41.211823 -83.766663 36,425 168 419 512
2020-10-21 01:55:45 GMT 41.216354 -83.768005 36,400 166 421 448
2020-10-21 01:55:40 GMT 41.225098 -83.770813 36,325 165 422 384
2020-10-21 01:55:37 GMT 41.231506 -83.772949 36,350 165 422 384
2020-10-21 01:55:33 GMT 41.238300 -83.775307 36,325 164 423 448
2020-10-21 01:55:30 GMT 41.244911 -83.777740 36,300 164 423 704
2020-10-21 01:55:26 GMT 41.250916 -83.780029 36,250 162 425 768
2020-10-21 01:55:23 GMT 41.258827 -83.783112 36,200 162 425 768
2020-10-21 01:55:20 GMT 41.262405 -83.784607 36,150 162 426 640
2020-10-21 01:55:17 GMT 41.268047 -83.786980 36,125 158 430 320
2020-10-21 01:55:14 GMT 41.274612 -83.789917 36,125 160 428 320
2020-10-21 01:55:10 GMT 41.282433 -83.793724 36,100 159 429 320
2020-10-21 01:55:06 GMT 41.290764 -83.797966 36,075 157 431 320
2020-10-21 01:55:03 GMT 41.294266 -83.799866 36,075 157 431 320
2020-10-21 01:54:58 GMT 41.302170 -83.804207 36,050 157 430 320
2020-10-21 01:54:55 GMT 41.307861 -83.807373 36,025 157 430 320
2020-10-21 01:54:52 GMT 41.313538 -83.810547 36,025 157 430 256
2020-10-21 01:54:47 GMT 41.323608 -83.816284 35,975 156 429 256
2020-10-21 01:54:43 GMT 41.332104 -83.821442 35,950 154 431 320
2020-10-21 01:54:37 GMT 41.343414 -83.828804 35,925 151 434 448
2020-10-21 01:54:34 GMT 41.348740 -83.832581 35,900 150 436 512
2020-10-21 01:54:25 GMT 41.363663 -83.844421 35,825 148 439 768
2020-10-21 01:54:21 GMT 41.368607 -83.848755 35,775 145 442 512
2020-10-21 01:54:16 GMT 41.377716 -83.857178 35,725 144 444 320
2020-10-21 01:54:12 GMT 41.385178 -83.864441 35,700 143 445 448
2020-10-21 01:54:05 GMT 41.397354 -83.876495 35,650 143 444 640
2020-10-21 01:54:01 GMT 41.402302 -83.881447 35,600 143 444 704
2020-10-21 01:53:56 GMT 41.410728 -83.889748 35,525 143 444 704
2020-10-21 01:53:53 GMT 41.416454 -83.895432 35,500 143 444 704
2020-10-21 01:53:50 GMT 41.420105 -83.899033 35,475 143 444 704
2020-10-21 01:53:47 GMT 41.426510 -83.905396 35,400 142 444 1024
2020-10-21 01:53:44 GMT 41.432236 -83.911209 35,375 142 445 1024
2020-10-21 01:53:41 GMT 41.436287 -83.915428 35,325 141 446 1024
2020-10-21 01:53:36 GMT 41.443176 -83.922966 35,250 138 451 1024
2020-10-21 01:53:33 GMT 41.449402 -83.930367 35,175 125 468 -64
2020-10-21 01:53:30 GMT 41.452606 -83.934425 35,175 135 456 896
2020-10-21 01:53:25 GMT 41.459702 -83.944038 35,100 132 460 768
2020-10-21 01:53:20 GMT 41.467896 -83.956497 35,050 129 464 576
2020-10-21 01:53:16 GMT 41.473251 -83.965446 35,025 126 467 64
2020-10-21 01:53:12 GMT 41.478561 -83.974876 35,000 125 469 -64
2020-10-21 01:53:09 GMT 41.481441 -83.980263 35,000 125 468 -64
2020-10-21 01:53:05 GMT 41.487030 -83.990913 35,025 124 468 0
2020-10-21 01:53:02 GMT 41.490612 -83.997757 35,000 124 468 0
2020-10-21 01:52:59 GMT 41.493851 -84.003960 35,025 124 469 -64
2020-10-21 01:52:53 GMT 41.507607 -84.030594 35,000 124 469 64
2020-10-21 01:52:49 GMT 41.507607 -84.030594 35,000 123 470 64
2020-10-21 01:52:44 GMT 41.512115 -84.039482 35,000 121 473 64
2020-10-21 01:52:40 GMT 41.516373 -84.048218 35,000 121 473 64
2020-10-21 01:52:37 GMT 41.520676 -84.057709 35,000 120 475 64
2020-10-21 01:52:34 GMT 41.523605 -84.064636 35,000 118 479 64
2020-10-21 01:52:31 GMT 41.527176 -84.073814 35,000 111 487 0
2020-10-21 01:52:28 GMT 41.529602 -84.080551 35,000 114 485 64
2020-10-21 01:52:25 GMT 41.532650 -84.089806 35,000 112 486 0
2020-10-21 01:52:21 GMT 41.536186 -84.101814 35,000 108 489 0
2020-10-21 01:52:18 GMT 41.538437 -84.110329 35,000 108 490 64
2020-10-21 01:52:13 GMT 41.541031 -84.121292 34,975 106 491 192
2020-10-21 01:52:09 GMT 41.543404 -84.132660 34,975 104 492 384
2020-10-21 01:52:04 GMT 41.546337 -84.149529 34,900 100 496 832
2020-10-21 01:52:00 GMT 41.548153 -84.163063 34,875 99 496 960
2020-10-21 01:51:57 GMT 41.549194 -84.172813 34,800 96 499 1088
2020-10-21 01:51:53 GMT 41.550106 -84.184402 34,725 95 501 1088
2020-10-21 01:51:49 GMT 41.550659 -84.193352 34,675 93 503 960
2020-10-21 01:51:46 GMT 41.551025 -84.204216 34,625 91 505 896
2020-10-21 01:51:42 GMT 41.551083 -84.216660 34,575 89 507 768
2020-10-21 01:51:39 GMT 41.550758 -84.228859 34,525 82 509 640
2020-10-21 01:51:35 GMT 41.549549 -84.248207 34,450 84 509 512
2020-10-21 01:51:32 GMT 41.549549 -84.248207 34,475 83 509 576
2020-10-21 01:51:29 GMT 41.548553 -84.259453 34,425 82 509 640
2020-10-21 01:51:26 GMT 41.547501 -84.269417 34,400 81 510 640
2020-10-21 01:51:22 GMT 41.546150 -84.281487 34,375 80 509 704
2020-10-21 01:51:18 GMT 41.544613 -84.294197 34,325 80 509 768
2020-10-21 01:51:15 GMT 41.542145 -84.313683 34,275 80 509 704
2020-10-21 01:51:11 GMT 41.542145 -84.313683 34,225 80 509 640
2020-10-21 01:51:07 GMT 41.540726 -84.324753 34,200 80 508 576
2020-10-21 01:51:04 GMT 41.539764 -84.332489 34,175 80 508 576
2020-10-21 01:51:00 GMT 41.538116 -84.345100 34,125 80 507 576
2020-10-21 01:50:57 GMT 41.536701 -84.356155 34,100 80 506 576
2020-10-21 01:50:54 GMT 41.535583 -84.364777 34,075 80 506 576
2020-10-21 01:50:51 GMT 41.534046 -84.376724 34,025 80 505 704
2020-10-21 01:50:47 GMT 41.532372 -84.389626 33,975 80 505 896
2020-10-21 01:50:43 GMT 41.529831 -84.408897 33,900 80 505 1280
2020-10-21 01:50:40 GMT 41.529831 -84.408897 33,850 80 505 1472
2020-10-21 01:50:37 GMT 41.528275 -84.421181 33,725 80 506 1792
2020-10-21 01:50:34 GMT 41.527294 -84.428528 33,650 80 507 1984
2020-10-21 01:50:30 GMT 41.525806 -84.439957 33,525 80 509 2112
2020-10-21 01:50:27 GMT 41.524384 -84.451096 33,400 80 510 2112
2020-10-21 01:50:23 GMT 41.523239 -84.460083 33,300 80 512 2176
2020-10-21 01:50:19 GMT 41.521591 -84.472816 33,150 80 514 2048
2020-10-21 01:50:14 GMT 41.519474 -84.489655 32,900 80 517 1664
2020-10-21 01:50:11 GMT 41.518078 -84.500641 32,875 80 517 1664
2020-10-21 01:50:07 GMT 41.516510 -84.513206 32,700 80 518 1920
2020-10-21 01:50:03 GMT 41.514961 -84.525810 32,625 80 519 2176
2020-10-21 01:49:59 GMT 41.513443 -84.538422 32,450 80 521 2496
2020-10-21 01:49:54 GMT 41.512074 -84.549820 32,250 81 525 2944
2020-10-21 01:49:51 GMT 41.510559 -84.562576 32,150 81 526 3008
2020-10-21 01:49:45 GMT 41.508499 -84.580620 31,825 81 531 2496
2020-10-21 01:49:42 GMT 41.506897 -84.593857 31,700 81 533 2048
2020-10-21 01:49:39 GMT 41.506165 -84.599968 31,575 80 534 1664
2020-10-21 01:49:35 GMT 41.504425 -84.614639 31,500 80 535 1344
2020-10-21 01:49:31 GMT 41.503098 -84.625999 31,400 80 535 640
2020-10-21 01:49:28 GMT 41.501694 -84.637711 31,400 80 535 576
2020-10-21 01:49:24 GMT 41.500397 -84.648476 31,375 80 534 320
2020-10-21 01:49:20 GMT 41.499039 -84.659813 31,375 80 532 64
2020-10-21 01:49:17 GMT 41.497688 -84.671120 31,350 80 531 192
2020-10-21 01:49:14 GMT 41.496643 -84.679871 31,350 80 531 192
2020-10-21 01:49:11 GMT 41.494995 -84.693726 31,300 81 529 832
2020-10-21 01:49:06 GMT 41.493622 -84.704964 30,850 81 529 576
2020-10-21 01:49:03 GMT 41.492382 -84.715897 30,850 81 529 576
2020-10-21 01:48:59 GMT 41.491013 -84.727501 31,050 81 530 1216
2020-10-21 01:48:56 GMT 41.489590 -84.739784 31,050 81 530 1216
2020-10-21 01:48:53 GMT 41.488449 -84.749413 30,975 81 530 896
2020-10-21 01:48:50 GMT 41.486935 -84.762329 30,925 81 530 640
2020-10-21 01:48:46 GMT 41.485771 -84.771980 30,900 81 529 512
2020-10-21 01:48:42 GMT 41.484329 -84.784492 30,875 81 527 448
2020-10-21 01:48:38 GMT 41.483139 -84.794792 30,850 81 527 512
2020-10-21 01:48:35 GMT 41.481628 -84.807556 30,800 81 525 704
2020-10-21 01:48:32 GMT 41.480759 -84.815575 30,750 81 525 768
2020-10-21 01:48:29 GMT 41.479294 -84.828682 30,700 81 525 1280
2020-10-21 01:48:22 GMT 41.477158 -84.848183 30,550 81 525 1600
2020-10-21 01:48:15 GMT 41.474579 -84.871567 30,350 81 526 1088
2020-10-21 01:48:12 GMT 41.473343 -84.882744 30,325 81 526 1088
2020-10-21 01:48:08 GMT 41.472015 -84.895226 30,250 81 526 1088
2020-10-21 01:48:03 GMT 41.470322 -84.910896 30,175 82 525 768
2020-10-21 01:47:50 GMT 41.466385 -84.948601 30,075 82 521 576
2020-10-21 01:47:43 GMT 41.464077 -84.970177 30,000 82 520 448
2020-10-21 01:47:39 GMT 41.462769 -84.982872 29,975 82 519 576
2020-10-21 01:47:34 GMT 41.460587 -85.003395 29,875 82 518 832
2020-10-21 01:47:29 GMT 41.459003 -85.018211 29,800 81 517 1024
2020-10-21 01:47:23 GMT 41.457188 -85.035843 29,700 82 516 1280
2020-10-21 01:47:19 GMT 41.455887 -85.048164 29,650 82 516 1536
2020-10-21 01:47:16 GMT 41.454674 -85.059792 29,200 82 520 1792
2020-10-21 01:47:12 GMT 41.453751 -85.069260 29,350 82 518 1984
2020-10-21 01:47:09 GMT 41.452606 -85.080307 29,350 82 518 1984
2020-10-21 01:47:05 GMT 41.451462 -85.091728 28,925 82 521 1152
2020-10-21 01:47:02 GMT 41.450485 -85.101250 29,000 82 521 960
2020-10-21 01:46:58 GMT 41.448944 -85.116203 29,000 82 521 1088
2020-10-21 01:46:54 GMT 41.447926 -85.126030 28,925 82 510 1536
2020-10-21 01:46:49 GMT 41.445877 -85.146042 28,925 82 519 320
2020-10-21 01:46:43 GMT 41.443817 -85.166206 28,625 82 510 1536
2020-10-21 01:46:38 GMT 41.442261 -85.181557 28,925 82 512 192
2020-10-21 01:46:34 GMT 41.441071 -85.193108 28,875 82 510 832
2020-10-21 01:46:31 GMT 41.440521 -85.198723 28,850 82 510 1152
2020-10-21 01:46:27 GMT 41.439194 -85.211769 28,800 82 510 1024
2020-10-21 01:46:23 GMT 41.437683 -85.227005 28,700 82 509 1600
2020-10-21 01:46:18 GMT 41.436100 -85.243172 28,475 82 510 1344
2020-10-21 01:46:15 GMT 41.435215 -85.252182 28,475 82 510 1344
2020-10-21 01:46:12 GMT 41.434296 -85.261208 28,425 82 510 1024
2020-10-21 01:46:06 GMT 41.432751 -85.276772 28,350 82 509 960
2020-10-21 01:46:01 GMT 41.430954 -85.295044 28,200 82 509 1152
2020-10-21 01:45:55 GMT 41.429398 -85.310898 28,150 82 508 960
2020-10-21 01:45:49 GMT 41.427246 -85.331871 28,075 82 506 576
2020-10-21 01:45:46 GMT 41.423950 -85.364220 27,925 82 505 960
2020-10-21 01:45:39 GMT 41.423950 -85.364220 27,925 82 504 832
2020-10-21 01:45:36 GMT 41.423309 -85.370323 27,875 82 503 768
2020-10-21 01:45:28 GMT 41.420692 -85.396347 27,775 82 501 704
2020-10-21 01:45:24 GMT 41.419296 -85.410080 27,725 82 500 1088
2020-10-21 01:45:17 GMT 41.417198 -85.430771 27,450 82 500 1536
2020-10-21 01:45:13 GMT 41.416397 -85.439301 27,500 82 500 1536
2020-10-21 01:45:06 GMT 41.414062 -85.463707 27,325 83 499 960
2020-10-21 01:45:02 GMT 41.413284 -85.473450 27,200 92 493 2240
2020-10-21 01:44:58 GMT 41.412685 -85.484367 27,200 92 493 2240
2020-10-21 01:44:54 GMT 41.412415 -85.501724 27,050 91 494 1920
2020-10-21 01:44:48 GMT 41.412872 -85.518387 26,825 94 493 2624
2020-10-21 01:44:44 GMT 41.413742 -85.531372 26,700 95 493 2816
2020-10-21 01:44:34 GMT 41.418644 -85.566505 26,200 105 491 1216
2020-10-21 01:44:25 GMT 41.422623 -85.584122 26,175 108 487 640
2020-10-21 01:44:22 GMT 41.425625 -85.596016 25,950 109 483 832
2020-10-21 01:44:17 GMT 41.427979 -85.605034 26,075 109 483 832
2020-10-21 01:44:13 GMT 41.431458 -85.618202 25,950 109 482 1472
2020-10-21 01:44:06 GMT 41.437592 -85.640152 25,825 111 480 1088
2020-10-21 01:44:03 GMT 41.440338 -85.648788 25,775 114 478 768
2020-10-21 01:43:57 GMT 41.445923 -85.664040 25,725 118 471 704
2020-10-21 01:43:53 GMT 41.449127 -85.671577 25,650 122 467 832
2020-10-21 01:43:46 GMT 41.457321 -85.688431 25,525 135 449 320
2020-10-21 01:43:42 GMT 41.462311 -85.697289 25,375 129 458 1088
2020-10-21 01:43:39 GMT 41.468674 -85.707405 25,425 132 453 640
2020-10-21 01:43:35 GMT 41.473160 -85.713707 25,400 135 449 320
2020-10-21 01:43:31 GMT 41.477299 -85.719101 25,350 139 443 320
2020-10-21 01:43:25 GMT 41.489319 -85.732620 25,300 142 437 704
2020-10-21 01:43:22 GMT 41.500854 -85.743248 25,225 145 433 1088
2020-10-21 01:43:17 GMT 41.507675 -85.748482 23,975 195 381 704
2020-10-21 01:43:13 GMT 41.507675 -85.748482 25,125 151 424 960
2020-10-21 01:43:09 GMT 41.514633 -85.753212 25,025 154 420 1536
2020-10-21 01:43:04 GMT 41.524384 -85.758842 24,875 159 415 1856
2020-10-21 01:43:00 GMT 41.529419 -85.761276 24,775 161 413 2176
2020-10-21 01:42:54 GMT 41.540451 -85.765579 24,550 167 411 2624
2020-10-21 01:42:50 GMT 41.548782 -85.767952 24,350 170 410 2240
2020-10-21 01:42:46 GMT 41.556671 -85.769432 24,175 177 404 704
2020-10-21 01:42:41 GMT 41.567505 -85.770203 23,975 195 382 704
2020-10-21 01:42:35 GMT 41.576706 -85.769699 22,925 189 391 768
2020-10-21 01:42:30 GMT 41.585907 -85.768204 24,050 190 389 1088
2020-10-21 01:42:23 GMT 41.597961 -85.764832 23,950 195 381 1152
2020-10-21 01:42:20 GMT 41.604263 -85.762650 23,625 195 379 2176
2020-10-21 01:42:12 GMT 41.617859 -85.757965 23,625 195 380 2304
2020-10-21 01:42:09 GMT 41.623657 -85.755959 23,475 195 382 2560
2020-10-21 01:42:02 GMT 41.634613 -85.752159 23,225 195 383 2304
2020-10-21 01:41:59 GMT 41.639442 -85.750465 23,125 195 384 2112
2020-10-21 01:41:52 GMT 41.653015 -85.745667 22,900 195 383 1152
2020-10-21 01:41:47 GMT 41.660576 -85.742928 22,825 196 382 832
2020-10-21 01:41:41 GMT 41.670273 -85.739426 22,750 196 379 832
2020-10-21 01:41:37 GMT 41.678356 -85.736473 22,675 196 377 1088
2020-10-21 01:41:31 GMT 41.687439 -85.733124 22,550 196 375 1344
2020-10-21 01:41:28 GMT 41.693665 -85.730812 22,375 196 373 1024
2020-10-21 01:41:24 GMT 41.700333 -85.728294 22,400 196 373 1088
2020-10-21 01:41:21 GMT 41.705173 -85.726509 22,350 196 372 1024
2020-10-21 01:41:16 GMT 41.711792 -85.724007 22,275 196 371 1152
2020-10-21 01:41:13 GMT 41.716599 -85.722260 22,200 196 370 1408
2020-10-21 01:41:10 GMT 41.721558 -85.720375 22,100 147 402 1344
2020-10-21 01:41:07 GMT 41.725983 -85.718765 22,025 196 369 1472
2020-10-21 01:41:04 GMT 41.733398 -85.716019 21,925 196 368 1472
2020-10-21 01:41:00 GMT 41.739029 -85.714020 21,875 196 368 1472
2020-10-21 01:40:56 GMT 41.746078 -85.711464 21,775 195 367 1472
2020-10-21 01:40:53 GMT 41.751026 -85.709778 21,700 195 367 1600
2020-10-21 01:40:50 GMT 41.755634 -85.708176 21,275 192 367 1664
2020-10-21 01:40:46 GMT 41.761734 -85.706131 21,400 193 367 1536
2020-10-21 01:40:42 GMT 41.769653 -85.703659 21,375 193 368 1536
2020-10-21 01:40:37 GMT 41.777794 -85.701279 21,250 192 367 1664
2020-10-21 01:40:34 GMT 41.780319 -85.700600 21,200 192 367 1728
2020-10-21 01:40:31 GMT 41.785988 -85.699043 21,075 193 367 1664
2020-10-21 01:40:28 GMT 41.790783 -85.697701 21,075 193 367 1664
2020-10-21 01:40:25 GMT 41.795624 -85.696358 20,950 191 367 1472
2020-10-21 01:40:20 GMT 41.806190 -85.693871 20,875 190 368 1472
2020-10-21 01:40:15 GMT 41.812103 -85.692719 20,700 187 369 1792
2020-10-21 01:40:07 GMT 41.827141 -85.690994 20,400 184 373 2432
2020-10-21 01:40:04 GMT 41.844040 -85.691238 20,275 181 376 2368
2020-10-21 01:39:58 GMT 41.844040 -85.691238 20,075 173 384 1600
2020-10-21 01:39:55 GMT 41.847946 -85.691956 19,950 156 397 704
2020-10-21 01:39:47 GMT 41.863960 -85.697639 19,850 157 397 832
2020-10-21 01:39:44 GMT 41.866711 -85.699173 19,825 153 399 832
2020-10-21 01:39:33 GMT 41.884506 -85.712463 19,625 144 406 1728
2020-10-21 01:39:23 GMT 41.901260 -85.729256 19,175 141 410 2496
2020-10-21 01:39:13 GMT 41.915775 -85.744583 18,775 141 413 3072
2020-10-21 01:39:09 GMT 41.920151 -85.749184 18,575 141 413 3072
2020-10-21 01:39:04 GMT 41.930054 -85.759216 18,325 144 413 2048
2020-10-21 01:39:01 GMT 41.933510 -85.762535 18,100 144 413 1536
2020-10-21 01:38:52 GMT 41.946220 -85.774162 17,450 147 396 768
2020-10-21 01:38:49 GMT 41.952301 -85.779312 18,000 147 406 1472
2020-10-21 01:38:42 GMT 41.962933 -85.788338 17,825 147 404 1472
2020-10-21 01:38:36 GMT 41.972988 -85.797028 16,250 146 386 704
2020-10-21 01:38:32 GMT 41.978806 -85.801971 17,600 147 400 1152
2020-10-21 01:38:27 GMT 41.987503 -85.809525 17,500 147 397 832
2020-10-21 01:38:22 GMT 41.995193 -85.816193 16,875 141 371 1216
2020-10-21 01:38:11 GMT 42.010941 -85.830063 17,325 146 386 704
2020-10-21 01:38:00 GMT 42.027191 -85.845421 17,175 143 381 832
2020-10-21 01:37:54 GMT 42.036625 -85.855217 17,075 141 377 1088
2020-10-21 01:37:51 GMT 42.040192 -85.859032 17,025 140 376 1216
2020-10-21 01:37:42 GMT 42.052368 -85.871948 16,850 144 367 896
2020-10-21 01:37:29 GMT 42.070129 -85.884682 16,700 166 332 576
2020-10-21 01:37:20 GMT 42.083679 -85.888992 16,550 179 313 1280
2020-10-21 01:37:09 GMT 42.099331 -85.888748 16,350 188 301 1856
2020-10-21 01:37:01 GMT 42.109619 -85.886642 16,050 189 299 2304
2020-10-21 01:36:58 GMT 42.115128 -85.885559 15,950 189 299 2368
2020-10-21 01:36:53 GMT 42.129593 -85.882561 14,975 189 299 2112
2020-10-21 01:36:48 GMT 42.129593 -85.882561 15,550 189 297 2304
2020-10-21 01:36:45 GMT 42.132893 -85.881912 15,475 189 297 2176
2020-10-21 01:36:42 GMT 42.137131 -85.881088 15,050 189 297 2304
2020-10-21 01:36:37 GMT 42.142548 -85.879936 14,550 189 295 2240
2020-10-21 01:36:34 GMT 42.146908 -85.879105 15,075 189 296 2304
2020-10-21 01:36:26 GMT 42.159336 -85.876549 14,625 189 292 2048
2020-10-21 01:36:18 GMT 42.167995 -85.874763 14,500 190 293 2048
2020-10-21 01:36:13 GMT 42.175781 -85.873070 13,725 187 284 1472
2020-10-21 01:36:07 GMT 42.184708 -85.871185 13,975 190 289 1792
2020-10-21 01:36:00 GMT 42.193691 -85.869202 13,775 190 288 1856
2020-10-21 01:35:56 GMT 42.198254 -85.868248 13,550 175 286 1216
2020-10-21 01:35:49 GMT 42.207005 -85.866333 13,475 188 284 1536
2020-10-21 01:35:45 GMT 42.211941 -85.865501 13,475 186 284 1408
2020-10-21 01:35:40 GMT 42.219437 -85.865120 12,950 171 287 1728
2020-10-21 01:35:36 GMT 42.224991 -85.865646 13,250 172 287 1472
2020-10-21 01:35:27 GMT 42.243576 -85.872513 12,750 155 296 2688
2020-10-21 01:35:21 GMT 42.243576 -85.872513 12,750 155 296 2688
2020-10-21 01:35:18 GMT 42.247192 -85.874886 12,350 151 302 2624
2020-10-21 01:35:14 GMT 42.251648 -85.878464 12,500 145 308 1920
2020-10-21 01:35:10 GMT 42.256538 -85.883446 12,350 138 312 1792
2020-10-21 01:35:05 GMT 42.266357 -85.897758 12,000 130 317 2048
2020-10-21 01:35:01 GMT 42.266357 -85.897758 12,025 125 321 2048
2020-10-21 01:34:54 GMT 42.270859 -85.907532 11,700 117 327 2496
2020-10-21 01:34:51 GMT 42.273743 -85.915894 11,575 106 335 2560
2020-10-21 01:34:47 GMT 42.274979 -85.920326 11,525 106 335 2560
2020-10-21 01:34:43 GMT 42.276928 -85.930908 11,325 98 340 2112
2020-10-21 01:34:36 GMT 42.277809 -85.943810 11,125 89 344 1728
2020-10-21 01:34:30 GMT 42.276833 -85.960228 10,850 73 343 1728
2020-10-21 01:34:25 GMT 42.275757 -85.966957 10,800 67 343 1728
2020-10-21 01:34:22 GMT 42.274273 -85.973961 10,725 71 343 1664
2020-10-21 01:34:15 GMT 42.270081 -85.987556 10,350 56 338 2304
2020-10-21 01:34:07 GMT 42.263195 -86.003471 10,175 56 338 2368
2020-10-21 01:33:57 GMT 42.254116 -86.020844 9,800 52 336 2240
2020-10-21 01:33:53 GMT 42.250763 -86.026588 9,675 50 335 2048
2020-10-21 01:33:48 GMT 42.246277 -86.033562 9,525 49 333 1920
2020-10-21 01:33:45 GMT 42.242523 -86.038681 9,425 44 329 1984
2020-10-21 01:33:41 GMT 42.237946 -86.044357 9,000 20 319 3072
2020-10-21 01:33:35 GMT 42.229752 -86.052971 9,000 20 319 3072
2020-10-21 01:33:31 GMT 42.225220 -86.057220 8,650 32 325 3328
2020-10-21 01:33:28 GMT 42.222649 -86.059418 8,650 32 325 3328
2020-10-21 01:33:25 GMT 42.216660 -86.064026 8,425 26 322 2624
2020-10-21 01:33:21 GMT 42.211395 -86.067459 8,250 23 320 2880
2020-10-21 01:33:16 GMT 42.206955 -86.070137 8,100 20 319 3072
2020-10-21 01:33:09 GMT 42.196903 -86.075455 7,725 20 319 3136
2020-10-21 01:33:04 GMT 42.188599 -86.079758 7,400 20 320 3072
2020-10-21 01:32:59 GMT 42.183029 -86.082542 7,200 20 320 2880
2020-10-21 01:32:49 GMT 42.168507 -86.089760 6,750 20 316 2880
2020-10-21 01:32:39 GMT 42.155193 -86.096466 6,275 19 313 2880
2020-10-21 01:32:07 GMT 42.110962 -86.116585 4,600 16 311 3776
2020-10-21 01:32:03 GMT 42.105709 -86.118629 4,375 16 312 3072
2020-10-21 01:31:58 GMT 42.097652 -86.121765 4,100 16 310 2560
2020-10-21 01:28:58 GMT 41.854465 -86.179184 2,875 8 304 -64
2020-10-21 01:28:50 GMT 41.843170 -86.181686 2,875 10 305 0
2020-10-21 01:28:41 GMT 41.828934 -86.185745 2,875 13 304 0
2020-10-21 01:28:31 GMT 41.816116 -86.190613 2,875 18 301 64
2020-10-21 01:28:20 GMT 41.802837 -86.197456 2,875 25 301 64
2020-10-21 01:28:11 GMT 41.789989 -86.206909 2,850 38 294 0
2020-10-21 01:28:00 GMT 41.779842 -86.218338 2,850 46 283 0
2020-10-21 01:27:48 GMT 41.769413 -86.233864 2,850 48 272 0
2020-10-21 01:27:40 GMT 41.762108 -86.244911 2,850 48 259 64
2020-10-21 01:27:35 GMT 41.757889 -86.251167 2,850 47 247 0
2020-10-21 01:27:29 GMT 41.754410 -86.256096 2,850 46 239 -256
2020-10-21 01:27:25 GMT 41.750141 -86.261711 2,850 41 234 0
2020-10-21 01:27:19 GMT 41.746124 -86.266144 2,850 33 232 192
2020-10-21 01:27:13 GMT 41.739029 -86.271263 2,825 17 223 64
2020-10-21 01:27:09 GMT 41.736191 -86.272575 2,825 14 218 256
2020-10-21 01:27:02 GMT 41.728542 -86.275063 2,775 11 206 704

Making use of Plane Finder data

You are free to use the raw flight data, aircraft information and images provided in this report for your own purposes provided the data is correctly attributed to Plane Finder. We ask that you please credit Plane Finder and link to planefinder.net in close proximity to the content.

Optionally one of the following logos (no smaller then 150x24px) can be used and must link to planefinder.net

Embedding the Plane Finder map

You are welcome to embed the Plane Finder playback map on your website to offer visitors a more interactive experience. We suggest using the following HTML code:

<iframe src="//planefinder.net/data/report/G41530-N275NV-7700-squawk-2020-10-21/map" width="800" height="600" seamless="seamless"></iframe>

Where our data comes from

Plane Finder has a global network of data feeds and antenna radars that receive data broadcast directly from aircraft. The primary technologies used are ADS-B and MLAT. We also show feeds from the FAA and a FLARM glider feed.

Click here to find out more about the Plane Finder network.

How we collect our data